Observation data for Boys Ranch on 05/15/2018      Previous  Date  Next       Current Mesonet Observations  Soil Data  Daily Summary Page  Observations in Plain Language
KBY1 150500Z 11007KT 21/10 A2993 RMK A01 T02120104  RH  050%=      5-min Rain = 0
KBY1 150501Z 11008KT 21/10 A2994 RMK A01 T02120103  RH  050%=      5-min Rain = 0
KBY1 150502Z 11008KT 21/10 A2994 RMK A01 T02110104  RH  050%=      5-min Rain = 0
KBY1 150503Z 11007KT 21/10 A2994 RMK A01 T02110104  RH  050%=      5-min Rain = 0
KBY1 150504Z 11010KT 21/10 A2994 RMK A01 T02100103  RH  050%=      5-min Rain = 0
KBY1 150505Z 11007KT 21/10 A2994 RMK A01 T02100103  RH  050%=      5-min Rain = 0
KBY1 150506Z 11007KT 21/10 A2994 RMK A01 T02100103  RH  050%=      5-min Rain = 0
KBY1 150507Z 11007KT 21/10 A2994 RMK A01 T02100103  RH  050%=      5-min Rain = 0
KBY1 150508Z 10008KT 21/10 A2994 RMK A01 T02100103  RH  050%=      5-min Rain = 0
KBY1 150509Z 10008KT 21/10 A2994 RMK A01 T02100103  RH  050%=      5-min Rain = 0
KBY1 150510Z 11007KT 21/10 A2994 RMK A01 T02090103  RH  051%=      5-min Rain = 0
KBY1 150511Z 11007KT 21/10 A2994 RMK A01 T02080103  RH  051%=      5-min Rain = 0
KBY1 150512Z 10008KT 21/10 A2994 RMK A01 T02080103  RH  051%=      5-min Rain = 0
KBY1 150513Z 10008KT 21/10 A2994 RMK A01 T02080103  RH  051%=      5-min Rain = 0
KBY1 150514Z 10009KT 21/10 A2994 RMK A01 T02080103  RH  051%=      5-min Rain = 0
KBY1 150515Z 10009KT 21/10 A2994 RMK A01 T02070103  RH  051%=      5-min Rain = 0
KBY1 150516Z 11007KT 21/10 A2994 RMK A01 T02080103  RH  051%=      5-min Rain = 0
KBY1 150517Z 11007KT 21/10 A2994 RMK A01 T02070103  RH  051%=      5-min Rain = 0
KBY1 150518Z 11008KT 21/10 A2994 RMK A01 T02070103  RH  051%=      5-min Rain = 0
KBY1 150519Z 10007KT 21/10 A2994 RMK A01 T02070104  RH  052%=      5-min Rain = 0
KBY1 150520Z 11007KT 21/10 A2994 RMK A01 T02070104  RH  052%=      5-min Rain = 0
KBY1 150521Z 10008KT 21/10 A2994 RMK A01 T02060104  RH  052%=      5-min Rain = 0
KBY1 150522Z 11008KT 21/11 A2994 RMK A01 T02050105  RH  052%=      5-min Rain = 0
KBY1 150523Z 10009KT 21/11 A2994 RMK A01 T02050105  RH  053%=      5-min Rain = 0
KBY1 150524Z 11008KT 21/11 A2994 RMK A01 T02050105  RH  053%=      5-min Rain = 0
KBY1 150525Z 10008KT 21/11 A2994 RMK A01 T02050105  RH  053%=      5-min Rain = 0
KBY1 150526Z 10008KT 20/11 A2994 RMK A01 T02040105  RH  053%=      5-min Rain = 0
KBY1 150527Z 10009KT 20/11 A2994 RMK A01 T02040106  RH  053%=      5-min Rain = 0
KBY1 150528Z 10008KT 20/11 A2993 RMK A01 T02030106  RH  053%=      5-min Rain = 0
KBY1 150529Z 11009KT 20/11 A2993 RMK A01 T02040106  RH  053%=      5-min Rain = 0
KBY1 150530Z 11008KT 20/11 A2993 RMK A01 T02030105  RH  053%=      5-min Rain = 0
KBY1 150531Z 11009KT 20/11 A2993 RMK A01 T02030105  RH  053%=      5-min Rain = 0
KBY1 150532Z 11008KT 20/11 A2994 RMK A01 T02030105  RH  053%=      5-min Rain = 0
KBY1 150533Z 11008KT 20/11 A2993 RMK A01 T02030105  RH  053%=      5-min Rain = 0
KBY1 150534Z 11007KT 20/11 A2993 RMK A01 T02030105  RH  053%=      5-min Rain = 0
KBY1 150535Z 11008KT 20/10 A2993 RMK A01 T02020104  RH  053%=      5-min Rain = 0
KBY1 150536Z 11008KT 20/10 A2993 RMK A01 T02020104  RH  053%=      5-min Rain = 0
KBY1 150537Z 11008KT 20/10 A2993 RMK A01 T02020104  RH  053%=      5-min Rain = 0
KBY1 150538Z 11007KT 20/10 A2993 RMK A01 T02020104  RH  053%=      5-min Rain = 0
KBY1 150539Z 12005KT 20/10 A2994 RMK A01 T02030104  RH  053%=      5-min Rain = 0
KBY1 150540Z 11007KT 20/10 A2994 RMK A01 T02020104  RH  053%=      5-min Rain = 0
KBY1 150541Z 11006KT 20/10 A2994 RMK A01 T02010104  RH  053%=      5-min Rain = 0
KBY1 150542Z 11007KT 20/10 A2994 RMK A01 T02010104  RH  053%=      5-min Rain = 0
KBY1 150543Z 11006KT 20/10 A2994 RMK A01 T02010104  RH  053%=      5-min Rain = 0
KBY1 150544Z 10007KT 20/10 A2994 RMK A01 T02010104  RH  054%=      5-min Rain = 0
KBY1 150545Z 10007KT 20/10 A2994 RMK A01 T01990104  RH  054%=      5-min Rain = 0
KBY1 150546Z 09007KT 20/10 A2994 RMK A01 T01990104  RH  054%=      5-min Rain = 0
KBY1 150547Z 09008KT 20/10 A2994 RMK A01 T01980104  RH  054%=      5-min Rain = 0
KBY1 150548Z 09008KT 20/10 A2993 RMK A01 T01980104  RH  055%=      5-min Rain = 0
KBY1 150549Z 09008KT 20/10 A2994 RMK A01 T01970104  RH  055%=      5-min Rain = 0
KBY1 150550Z 09007KT 20/10 A2994 RMK A01 T01970104  RH  055%=      5-min Rain = 0
KBY1 150551Z 09006KT 20/10 A2994 RMK A01 T01960104  RH  055%=      5-min Rain = 0
KBY1 150552Z 09006KT 20/10 A2994 RMK A01 T01960104  RH  055%=      5-min Rain = 0
KBY1 150553Z 09006KT 20/10 A2994 RMK A01 T01970104  RH  055%=      5-min Rain = 0
KBY1 150554Z 09006KT 20/10 A2994 RMK A01 T01960104  RH  055%=      5-min Rain = 0
KBY1 150555Z 09005KT 20/10 A2995 RMK A01 T01970104  RH  055%=      5-min Rain = 0
KBY1 150556Z 08004KT 20/10 A2995 RMK A01 T01970104  RH  055%=      5-min Rain = 0
KBY1 150557Z 08005KT 20/10 A2995 RMK A01 T01960104  RH  055%=      5-min Rain = 0
KBY1 150558Z 08005KT 20/10 A2994 RMK A01 T01970104  RH  055%=      5-min Rain = 0
KBY1 150559Z 09005KT 20/10 A2994 RMK A01 T01960104  RH  055%=      5-min Rain = 0
KBY1 150600Z 09005KT 20/10 A2994 RMK A01 T01960104  RH  055%=      5-min Rain = 0
KBY1 150601Z 09006KT 20/10 A2994 RMK A01 T01950104  RH  056%=      5-min Rain = 0
KBY1 150602Z 09006KT 20/10 A2994 RMK A01 T01950104  RH  056%=      5-min Rain = 0
KBY1 150603Z 10005KT 20/10 A2994 RMK A01 T01950104  RH  056%=      5-min Rain = 0
KBY1 150604Z 10007KT 19/10 A2995 RMK A01 T01940104  RH  056%=      5-min Rain = 0
KBY1 150605Z 09007KT 19/10 A2994 RMK A01 T01940104  RH  056%=      5-min Rain = 0
KBY1 150606Z 09006KT 19/10 A2994 RMK A01 T01940104  RH  056%=      5-min Rain = 0
KBY1 150607Z 10006KT 19/10 A2994 RMK A01 T01940104  RH  056%=      5-min Rain = 0
KBY1 150608Z 10006KT 19/10 A2994 RMK A01 T01930103  RH  056%=      5-min Rain = 0
KBY1 150609Z 10005KT 19/10 A2994 RMK A01 T01940103  RH  056%=      5-min Rain = 0
KBY1 150610Z 10006KT 19/10 A2994 RMK A01 T01940103  RH  056%=      5-min Rain = 0
KBY1 150611Z 10006KT 19/10 A2994 RMK A01 T01930103  RH  056%=      5-min Rain = 0
KBY1 150612Z 10007KT 19/10 A2994 RMK A01 T01930103  RH  056%=      5-min Rain = 0
KBY1 150613Z 09007KT 19/10 A2994 RMK A01 T01930103  RH  056%=      5-min Rain = 0
KBY1 150614Z 10007KT 19/10 A2994 RMK A01 T01930103  RH  056%=      5-min Rain = 0
KBY1 150615Z 11007KT 19/10 A2994 RMK A01 T01930103  RH  056%=      5-min Rain = 0
KBY1 150616Z 10007KT 19/10 A2994 RMK A01 T01930103  RH  056%=      5-min Rain = 0
KBY1 150617Z 11006KT 19/10 A2994 RMK A01 T01930104  RH  056%=      5-min Rain = 0
KBY1 150618Z 11006KT 19/10 A2993 RMK A01 T01930103  RH  056%=      5-min Rain = 0
KBY1 150619Z 11006KT 19/10 A2993 RMK A01 T01930103  RH  056%=      5-min Rain = 0
KBY1 150620Z 10005KT 19/10 A2993 RMK A01 T01930103  RH  056%=      5-min Rain = 0
KBY1 150621Z 11006KT 19/10 A2993 RMK A01 T01920103  RH  056%=      5-min Rain = 0
KBY1 150622Z 10006KT 19/10 A2993 RMK A01 T01910103  RH  057%=      5-min Rain = 0
KBY1 150623Z 10005KT 19/10 A2993 RMK A01 T01910103  RH  057%=      5-min Rain = 0
KBY1 150624Z 10007KT 19/10 A2993 RMK A01 T01900103  RH  057%=      5-min Rain = 0
KBY1 150625Z 10006KT 19/10 A2993 RMK A01 T01900103  RH  057%=      5-min Rain = 0
KBY1 150626Z 09005KT 19/10 A2993 RMK A01 T01900103  RH  057%=      5-min Rain = 0
KBY1 150627Z 09005KT 19/10 A2993 RMK A01 T01890103  RH  057%=      5-min Rain = 0
KBY1 150628Z 09006KT 19/10 A2993 RMK A01 T01890103  RH  057%=      5-min Rain = 0
KBY1 150629Z 09006KT 19/10 A2993 RMK A01 T01890103  RH  057%=      5-min Rain = 0
KBY1 150630Z 08005KT 19/10 A2993 RMK A01 T01880103  RH  058%=      5-min Rain = 0
KBY1 150631Z 08004KT 19/10 A2993 RMK A01 T01880103  RH  058%=      5-min Rain = 0
KBY1 150632Z 08004KT 19/10 A2993 RMK A01 T01880103  RH  058%=      5-min Rain = 0
KBY1 150633Z 09004KT 19/10 A2993 RMK A01 T01880103  RH  057%=      5-min Rain = 0
KBY1 150634Z 08005KT 19/10 A2993 RMK A01 T01880102  RH  057%=      5-min Rain = 0
KBY1 150635Z 08007KT 19/10 A2993 RMK A01 T01880103  RH  057%=      5-min Rain = 0
KBY1 150636Z 08008KT 19/10 A2993 RMK A01 T01870102  RH  058%=      5-min Rain = 0
KBY1 150637Z 09007KT 19/10 A2993 RMK A01 T01880103  RH  058%=      5-min Rain = 0
KBY1 150638Z 09006KT 19/10 A2993 RMK A01 T01880102  RH  057%=      5-min Rain = 0
KBY1 150639Z 09005KT 19/10 A2993 RMK A01 T01880102  RH  057%=      5-min Rain = 0
KBY1 150640Z 09005KT 19/10 A2993 RMK A01 T01880102  RH  057%=      5-min Rain = 0
KBY1 150641Z 09005KT 19/10 A2993 RMK A01 T01880102  RH  057%=      5-min Rain = 0
KBY1 150642Z 10004KT 19/10 A2993 RMK A01 T01880102  RH  057%=      5-min Rain = 0
KBY1 150643Z 10003KT 19/10 A2993 RMK A01 T01890102  RH  057%=      5-min Rain = 0
KBY1 150644Z 10004KT 19/10 A2993 RMK A01 T01890102  RH  057%=      5-min Rain = 0
KBY1 150645Z 10006KT 19/10 A2993 RMK A01 T01880102  RH  057%=      5-min Rain = 0
KBY1 150646Z 10007KT 19/10 A2993 RMK A01 T01870102  RH  058%=      5-min Rain = 0
KBY1 150647Z 10006KT 19/10 A2993 RMK A01 T01860102  RH  058%=      5-min Rain = 0
KBY1 150648Z 10006KT 19/10 A2993 RMK A01 T01860102  RH  058%=      5-min Rain = 0
KBY1 150649Z 10005KT 19/10 A2993 RMK A01 T01860102  RH  058%=      5-min Rain = 0
KBY1 150650Z 10005KT 19/10 A2993 RMK A01 T01860102  RH  058%=      5-min Rain = 0
KBY1 150651Z 11004KT 19/10 A2993 RMK A01 T01850102  RH  058%=      5-min Rain = 0
KBY1 150652Z 11004KT 19/10 A2993 RMK A01 T01860102  RH  058%=      5-min Rain = 0
KBY1 150653Z 12002KT 19/10 A2994 RMK A01 T01850102  RH  058%=      5-min Rain = 0
KBY1 150654Z 12003KT 18/10 A2994 RMK A01 T01840101  RH  058%=      5-min Rain = 0
KBY1 150655Z 11003KT 18/10 A2994 RMK A01 T01830101  RH  059%=      5-min Rain = 0
KBY1 150656Z 11003KT 18/10 A2994 RMK A01 T01820101  RH  059%=      5-min Rain = 0
KBY1 150657Z 11003KT 18/10 A2994 RMK A01 T01810100  RH  059%=      5-min Rain = 0
KBY1 150658Z 11004KT 18/10 A2994 RMK A01 T01810100  RH  059%=      5-min Rain = 0
KBY1 150659Z 10005KT 18/10 A2993 RMK A01 T01800100  RH  060%=      5-min Rain = 0
KBY1 150700Z 10005KT 18/10 A2993 RMK A01 T01790100  RH  060%=      5-min Rain = 0
KBY1 150701Z 09004KT 18/10 A2993 RMK A01 T01780100  RH  060%=      5-min Rain = 0
KBY1 150702Z 09004KT 18/10 A2993 RMK A01 T01770100  RH  061%=      5-min Rain = 0
KBY1 150703Z 09003KT 18/10 A2993 RMK A01 T01760100  RH  061%=      5-min Rain = 0
KBY1 150704Z 08004KT 18/10 A2993 RMK A01 T01760100  RH  061%=      5-min Rain = 0
KBY1 150705Z 08004KT 18/10 A2993 RMK A01 T01750100  RH  061%=      5-min Rain = 0
KBY1 150706Z 08005KT 18/10 A2993 RMK A01 T01760100  RH  061%=      5-min Rain = 0
KBY1 150707Z 07005KT 18/10 A2993 RMK A01 T01750100  RH  061%=      5-min Rain = 0
KBY1 150708Z 07005KT 18/10 A2993 RMK A01 T01750100  RH  061%=      5-min Rain = 0
KBY1 150709Z 07005KT 18/10 A2993 RMK A01 T01760100  RH  061%=      5-min Rain = 0
KBY1 150710Z 08004KT 18/10 A2993 RMK A01 T01760100  RH  061%=      5-min Rain = 0
KBY1 150711Z 08004KT 18/10 A2993 RMK A01 T01750100  RH  061%=      5-min Rain = 0
KBY1 150712Z 08004KT 18/10 A2993 RMK A01 T01760101  RH  061%=      5-min Rain = 0
KBY1 150713Z 08004KT 18/10 A2993 RMK A01 T01770101  RH  061%=      5-min Rain = 0
KBY1 150714Z 08004KT 18/10 A2993 RMK A01 T01770101  RH  061%=      5-min Rain = 0
KBY1 150715Z 08003KT 18/10 A2993 RMK A01 T01770101  RH  061%=      5-min Rain = 0
KBY1 150716Z 08004KT 18/10 A2993 RMK A01 T01780101  RH  061%=      5-min Rain = 0
KBY1 150717Z 08005KT 18/10 A2993 RMK A01 T01780102  RH  061%=      5-min Rain = 0
KBY1 150718Z 08006KT 18/10 A2993 RMK A01 T01780102  RH  061%=      5-min Rain = 0
KBY1 150719Z 07005KT 18/10 A2993 RMK A01 T01760101  RH  061%=      5-min Rain = 0
KBY1 150720Z 06005KT 18/10 A2993 RMK A01 T01760101  RH  062%=      5-min Rain = 0
KBY1 150721Z 06005KT 18/10 A2993 RMK A01 T01750102  RH  062%=      5-min Rain = 0
KBY1 150722Z 05004KT 18/10 A2993 RMK A01 T01750102  RH  062%=      5-min Rain = 0
KBY1 150723Z 06003KT 18/10 A2993 RMK A01 T01750102  RH  062%=      5-min Rain = 0
KBY1 150724Z 04003KT 18/10 A2993 RMK A01 T01760102  RH  062%=      5-min Rain = 0
KBY1 150725Z 05003KT 18/10 A2993 RMK A01 T01760101  RH  062%=      5-min Rain = 0
KBY1 150726Z 05003KT 18/10 A2993 RMK A01 T01760101  RH  062%=      5-min Rain = 0
KBY1 150727Z 06003KT 18/10 A2993 RMK A01 T01760102  RH  062%=      5-min Rain = 0
KBY1 150728Z 06004KT 18/10 A2993 RMK A01 T01760102  RH  062%=      5-min Rain = 0
KBY1 150729Z 06004KT 18/10 A2993 RMK A01 T01760102  RH  062%=      5-min Rain = 0
KBY1 150730Z 07004KT 18/10 A2993 RMK A01 T01760102  RH  062%=      5-min Rain = 0
KBY1 150731Z 07004KT 18/10 A2993 RMK A01 T01750102  RH  062%=      5-min Rain = 0
KBY1 150732Z 08003KT 17/10 A2993 RMK A01 T01740100  RH  062%=      5-min Rain = 0
KBY1 150733Z 08003KT 17/10 A2993 RMK A01 T01720098  RH  062%=      5-min Rain = 0
KBY1 150734Z 07002KT 17/10 A2993 RMK A01 T01710099  RH  062%=      5-min Rain = 0
KBY1 150735Z 06002KT 17/10 A2993 RMK A01 T01700099  RH  063%=      5-min Rain = 0
KBY1 150736Z 08002KT 17/10 A2993 RMK A01 T01690099  RH  063%=      5-min Rain = 0
KBY1 150737Z 06002KT 17/10 A2993 RMK A01 T01690099  RH  063%=      5-min Rain = 0
KBY1 150738Z 05001KT 17/10 A2993 RMK A01 T01690100  RH  064%=      5-min Rain = 0
KBY1 150739Z 05000KT 17/10 A2993 RMK A01 T01680100  RH  064%=      5-min Rain = 0
KBY1 150740Z 07001KT 17/10 A2993 RMK A01 T01680100  RH  064%=      5-min Rain = 0
KBY1 150741Z 09000KT 17/10 A2993 RMK A01 T01680100  RH  064%=      5-min Rain = 0
KBY1 150742Z 07002KT 17/10 A2993 RMK A01 T01680099  RH  064%=      5-min Rain = 0
KBY1 150743Z 08001KT 17/10 A2992 RMK A01 T01680100  RH  064%=      5-min Rain = 0
KBY1 150744Z 06000KT 17/10 A2992 RMK A01 T01690100  RH  064%=      5-min Rain = 0
KBY1 150745Z 09001KT 17/10 A2992 RMK A01 T01690100  RH  064%=      5-min Rain = 0
KBY1 150746Z 09001KT 17/10 A2992 RMK A01 T01690100  RH  064%=      5-min Rain = 0
KBY1 150747Z 08002KT 17/10 A2992 RMK A01 T01690100  RH  064%=      5-min Rain = 0
KBY1 150748Z 09002KT 17/10 A2992 RMK A01 T01690100  RH  063%=      5-min Rain = 0
KBY1 150749Z 08001KT 17/10 A2992 RMK A01 T01700099  RH  063%=      5-min Rain = 0
KBY1 150750Z 10000KT 17/10 A2992 RMK A01 T01710099  RH  062%=      5-min Rain = 0
KBY1 150751Z 11000KT 17/10 A2992 RMK A01 T01710099  RH  063%=      5-min Rain = 0
KBY1 150752Z 10001KT 17/10 A2992 RMK A01 T01700099  RH  063%=      5-min Rain = 0
KBY1 150753Z 09001KT 17/10 A2992 RMK A01 T01700099  RH  063%=      5-min Rain = 0
KBY1 150754Z 11002KT 17/10 A2992 RMK A01 T01690099  RH  063%=      5-min Rain = 0
KBY1 150755Z 10002KT 17/10 A2992 RMK A01 T01700099  RH  063%=      5-min Rain = 0
KBY1 150756Z 11003KT 17/10 A2992 RMK A01 T01700099  RH  063%=      5-min Rain = 0
KBY1 150757Z 11003KT 17/10 A2992 RMK A01 T01700099  RH  063%=      5-min Rain = 0
KBY1 150758Z 12003KT 17/10 A2993 RMK A01 T01690097  RH  063%=      5-min Rain = 0
KBY1 150759Z 11003KT 17/10 A2993 RMK A01 T01660096  RH  063%=      5-min Rain = 0
KBY1 150800Z 11003KT 16/10 A2993 RMK A01 T01640096  RH  064%=      5-min Rain = 0
KBY1 150801Z 10004KT 16/10 A2992 RMK A01 T01630097  RH  065%=      5-min Rain = 0
KBY1 150802Z 10005KT 16/10 A2992 RMK A01 T01620096  RH  065%=      5-min Rain = 0
KBY1 150803Z 09006KT 16/10 A2992 RMK A01 T01610096  RH  065%=      5-min Rain = 0
KBY1 150804Z 10005KT 16/10 A2992 RMK A01 T01610096  RH  065%=      5-min Rain = 0
KBY1 150805Z 09005KT 16/10 A2992 RMK A01 T01600096  RH  066%=      5-min Rain = 0
KBY1 150806Z 11004KT 16/10 A2992 RMK A01 T01590095  RH  066%=      5-min Rain = 0
KBY1 150807Z 12003KT 16/10 A2992 RMK A01 T01590095  RH  066%=      5-min Rain = 0
KBY1 150808Z 11003KT 16/10 A2992 RMK A01 T01580096  RH  066%=      5-min Rain = 0
KBY1 150809Z 11003KT 16/10 A2992 RMK A01 T01580096  RH  067%=      5-min Rain = 0
KBY1 150810Z 14003KT 16/10 A2992 RMK A01 T01580097  RH  067%=      5-min Rain = 0
KBY1 150811Z 15002KT 16/10 A2992 RMK A01 T01580096  RH  067%=      5-min Rain = 0
KBY1 150812Z 13002KT 16/10 A2992 RMK A01 T01570096  RH  067%=      5-min Rain = 0
KBY1 150813Z 11003KT 16/10 A2992 RMK A01 T01560096  RH  068%=      5-min Rain = 0
KBY1 150814Z 11004KT 16/10 A2992 RMK A01 T01560097  RH  068%=      5-min Rain = 0
KBY1 150815Z 11004KT 16/10 A2993 RMK A01 T01560098  RH  068%=      5-min Rain = 0
KBY1 150816Z 10004KT 16/10 A2993 RMK A01 T01570099  RH  068%=      5-min Rain = 0
KBY1 150817Z 10004KT 16/10 A2993 RMK A01 T01580099  RH  068%=      5-min Rain = 0
KBY1 150818Z 10004KT 16/10 A2993 RMK A01 T01590099  RH  067%=      5-min Rain = 0
KBY1 150819Z 10004KT 16/10 A2993 RMK A01 T01590099  RH  067%=      5-min Rain = 0
KBY1 150820Z 09004KT 16/10 A2993 RMK A01 T01600099  RH  067%=      5-min Rain = 0
KBY1 150821Z 09005KT 16/10 A2992 RMK A01 T01590099  RH  067%=      5-min Rain = 0
KBY1 150822Z 09005KT 16/10 A2992 RMK A01 T01580098  RH  067%=      5-min Rain = 0
KBY1 150823Z 09005KT 16/10 A2993 RMK A01 T01570097  RH  067%=      5-min Rain = 0
KBY1 150824Z 09005KT 16/10 A2993 RMK A01 T01570098  RH  068%=      5-min Rain = 0
KBY1 150825Z 09004KT 16/10 A2993 RMK A01 T01560098  RH  068%=      5-min Rain = 0
KBY1 150826Z 10003KT 16/10 A2993 RMK A01 T01560098  RH  068%=      5-min Rain = 0
KBY1 150827Z 10002KT 16/10 A2993 RMK A01 T01560099  RH  069%=      5-min Rain = 0
KBY1 150828Z 10000KT 16/10 A2993 RMK A01 T01560099  RH  069%=      5-min Rain = 0
KBY1 150829Z 08001KT 16/10 A2993 RMK A01 T01560098  RH  068%=      5-min Rain = 0
KBY1 150830Z 09001KT 16/10 A2993 RMK A01 T01560098  RH  068%=      5-min Rain = 0
KBY1 150831Z 09001KT 16/10 A2993 RMK A01 T01560098  RH  068%=      5-min Rain = 0
KBY1 150832Z 12001KT 16/10 A2993 RMK A01 T01570098  RH  068%=      5-min Rain = 0
KBY1 150833Z 12001KT 16/10 A2993 RMK A01 T01560098  RH  068%=      5-min Rain = 0
KBY1 150834Z 16001KT 16/10 A2993 RMK A01 T01570098  RH  068%=      5-min Rain = 0
KBY1 150835Z 16000KT 16/10 A2993 RMK A01 T01570099  RH  068%=      5-min Rain = 0
KBY1 150836Z 09000KT 16/10 A2993 RMK A01 T01580099  RH  068%=      5-min Rain = 0
KBY1 150837Z 06002KT 16/10 A2993 RMK A01 T01580099  RH  068%=      5-min Rain = 0
KBY1 150838Z 07001KT 16/10 A2993 RMK A01 T01580100  RH  068%=      5-min Rain = 0
KBY1 150839Z 00000KT 16/10 A2993 RMK A01 T01590100  RH  068%=      5-min Rain = 0
KBY1 150840Z 24000KT 16/10 A2993 RMK A01 T01590100  RH  068%=      5-min Rain = 0
KBY1 150841Z 26001KT 16/10 A2993 RMK A01 T01590099  RH  068%=      5-min Rain = 0
KBY1 150842Z 26002KT 16/10 A2993 RMK A01 T01580100  RH  068%=      5-min Rain = 0
KBY1 150843Z 28002KT 16/10 A2993 RMK A01 T01590101  RH  068%=      5-min Rain = 0
KBY1 150844Z 29001KT 16/10 A2993 RMK A01 T01590101  RH  068%=      5-min Rain = 0
KBY1 150845Z 32000KT 16/10 A2993 RMK A01 T01600101  RH  068%=      5-min Rain = 0
KBY1 150846Z 00000KT 16/10 A2993 RMK A01 T01600101  RH  068%=      5-min Rain = 0
KBY1 150847Z 08001KT 16/10 A2993 RMK A01 T01600101  RH  068%=      5-min Rain = 0
KBY1 150848Z 07002KT 16/10 A2993 RMK A01 T01610102  RH  068%=      5-min Rain = 0
KBY1 150849Z 08002KT 16/10 A2993 RMK A01 T01610101  RH  068%=      5-min Rain = 0
KBY1 150850Z 09002KT 16/10 A2993 RMK A01 T01610101  RH  068%=      5-min Rain = 0
KBY1 150851Z 09002KT 16/10 A2993 RMK A01 T01600101  RH  068%=      5-min Rain = 0
KBY1 150852Z 08003KT 16/10 A2993 RMK A01 T01600101  RH  068%=      5-min Rain = 0
KBY1 150853Z 07003KT 16/10 A2993 RMK A01 T01600101  RH  068%=      5-min Rain = 0
KBY1 150854Z 05004KT 16/10 A2993 RMK A01 T01590101  RH  068%=      5-min Rain = 0
KBY1 150855Z 05005KT 16/10 A2993 RMK A01 T01580100  RH  069%=      5-min Rain = 0
KBY1 150856Z 04005KT 16/10 A2993 RMK A01 T01580101  RH  069%=      5-min Rain = 0
KBY1 150857Z 02005KT 16/10 A2993 RMK A01 T01600104  RH  069%=      5-min Rain = 0
KBY1 150858Z 01007KT 16/11 A2993 RMK A01 T01630105  RH  068%=      5-min Rain = 0
KBY1 150859Z 01007KT 17/10 A2994 RMK A01 T01650104  RH  067%=      5-min Rain = 0
KBY1 150900Z 01008KT 17/10 A2994 RMK A01 T01670104  RH  066%=      5-min Rain = 0
KBY1 150901Z 00011KT 17/10 A2994 RMK A01 T01680104  RH  066%=      5-min Rain = 0
KBY1 150902Z 36011KT 17/11 A2995 RMK A01 T01700105  RH  065%=      5-min Rain = 0
KBY1 150903Z 01012KT 17/10 A2995 RMK A01 T01710104  RH  064%=      5-min Rain = 0
KBY1 150904Z 01010KT 17/10 A2995 RMK A01 T01720103  RH  064%=      5-min Rain = 0
KBY1 150905Z 00010KT 17/10 A2995 RMK A01 T01730103  RH  063%=      5-min Rain = 0
KBY1 150906Z 00008KT 17/10 A2995 RMK A01 T01740103  RH  063%=      5-min Rain = 0
KBY1 150907Z 01006KT 18/10 A2995 RMK A01 T01750103  RH  063%=      5-min Rain = 0
KBY1 150908Z 02006KT 17/10 A2995 RMK A01 T01740103  RH  063%=      5-min Rain = 0
KBY1 150909Z 02007KT 18/10 A2995 RMK A01 T01750103  RH  063%=      5-min Rain = 0
KBY1 150910Z 03009KT 18/10 A2995 RMK A01 T01750103  RH  063%=      5-min Rain = 0
KBY1 150911Z 04010KT 18/10 A2995 RMK A01 T01750103  RH  063%=      5-min Rain = 0
KBY1 150912Z 04010KT 18/10 A2995 RMK A01 T01760103  RH  062%=      5-min Rain = 0
KBY1 150913Z 04010KT 18/10 A2995 RMK A01 T01760103  RH  062%=      5-min Rain = 0
KBY1 150914Z 04010KT 18/10 A2995 RMK A01 T01760103  RH  062%=      5-min Rain = 0
KBY1 150915Z 04009KT 18/10 A2995 RMK A01 T01760103  RH  062%=      5-min Rain = 0
KBY1 150916Z 04010KT 18/10 A2995 RMK A01 T01760103  RH  062%=      5-min Rain = 0
KBY1 150917Z 04011KT 18/10 A2995 RMK A01 T01760104  RH  062%=      5-min Rain = 0
KBY1 150918Z 03012KT 18/10 A2995 RMK A01 T01760103  RH  062%=      5-min Rain = 0
KBY1 150919Z 03013KT 18/10 A2995 RMK A01 T01760103  RH  062%=      5-min Rain = 0
KBY1 150920Z 03014KT 18/10 A2995 RMK A01 T01760103  RH  062%=      5-min Rain = 0
KBY1 150921Z 03013KT 18/10 A2995 RMK A01 T01760104  RH  062%=      5-min Rain = 0
KBY1 150922Z 03013KT 18/10 A2995 RMK A01 T01760103  RH  062%=      5-min Rain = 0
KBY1 150923Z 03011KT 18/10 A2996 RMK A01 T01760104  RH  062%=      5-min Rain = 0
KBY1 150924Z 03012G17KT 18/10 A2996 RMK A01 T01770104  RH  062%=      5-min Rain = 0
KBY1 150925Z 03010KT 18/10 A2996 RMK A01 T01770104  RH  062%=      5-min Rain = 0
KBY1 150926Z 03011KT 18/10 A2995 RMK A01 T01780104  RH  062%=      5-min Rain = 0
KBY1 150927Z 03011KT 18/10 A2995 RMK A01 T01780104  RH  062%=      5-min Rain = 0
KBY1 150928Z 03010KT 18/11 A2995 RMK A01 T01780105  RH  062%=      5-min Rain = 0
KBY1 150929Z 03010KT 18/11 A2995 RMK A01 T01780105  RH  062%=      5-min Rain = 0
KBY1 150930Z 03010KT 18/11 A2995 RMK A01 T01790105  RH  062%=      5-min Rain = 0
KBY1 150931Z 03009KT 18/11 A2995 RMK A01 T01790105  RH  062%=      5-min Rain = 0
KBY1 150932Z 04009KT 18/11 A2995 RMK A01 T01790105  RH  062%=      5-min Rain = 0
KBY1 150933Z 04009KT 18/11 A2996 RMK A01 T01800106  RH  062%=      5-min Rain = 0
KBY1 150934Z 03009KT 18/11 A2996 RMK A01 T01800106  RH  062%=      5-min Rain = 0
KBY1 150935Z 03009KT 18/11 A2996 RMK A01 T01800106  RH  062%=      5-min Rain = 0
KBY1 150936Z 03011KT 18/11 A2996 RMK A01 T01800106  RH  062%=      5-min Rain = 0
KBY1 150937Z 03008KT 18/11 A2996 RMK A01 T01810107  RH  062%=      5-min Rain = 0
KBY1 150938Z 03009KT 18/11 A2996 RMK A01 T01810107  RH  062%=      5-min Rain = 0
KBY1 150939Z 03009KT 18/11 A2996 RMK A01 T01800107  RH  062%=      5-min Rain = 0
KBY1 150940Z 03008KT 18/11 A2996 RMK A01 T01810108  RH  062%=      5-min Rain = 0
KBY1 150941Z 04008KT 18/11 A2996 RMK A01 T01810107  RH  062%=      5-min Rain = 0
KBY1 150942Z 04007KT 18/11 A2996 RMK A01 T01820108  RH  062%=      5-min Rain = 0
KBY1 150943Z 04006KT 18/11 A2996 RMK A01 T01820108  RH  062%=      5-min Rain = 0
KBY1 150944Z 05007KT 18/11 A2996 RMK A01 T01820108  RH  062%=      5-min Rain = 0
KBY1 150945Z 06006KT 18/11 A2995 RMK A01 T01820109  RH  062%=      5-min Rain = 0
KBY1 150946Z 05008KT 18/11 A2995 RMK A01 T01830109  RH  062%=      5-min Rain = 0
KBY1 150947Z 05006KT 18/11 A2995 RMK A01 T01840109  RH  062%=      5-min Rain = 0
KBY1 150948Z 05006KT 18/11 A2995 RMK A01 T01840109  RH  061%=      5-min Rain = 0
KBY1 150949Z 05006KT 19/11 A2996 RMK A01 T01850109  RH  061%=      5-min Rain = 0
KBY1 150950Z 05007KT 19/11 A2996 RMK A01 T01850109  RH  061%=      5-min Rain = 0
KBY1 150951Z 04007KT 19/11 A2996 RMK A01 T01850109  RH  061%=      5-min Rain = 0
KBY1 150952Z 05007KT 19/11 A2996 RMK A01 T01850108  RH  061%=      5-min Rain = 0
KBY1 150953Z 04007KT 19/11 A2996 RMK A01 T01860108  RH  061%=      5-min Rain = 0
KBY1 150954Z 04007KT 19/11 A2996 RMK A01 T01860108  RH  060%=      5-min Rain = 0
KBY1 150955Z 05007KT 19/11 A2996 RMK A01 T01860108  RH  060%=      5-min Rain = 0
KBY1 150956Z 05007KT 19/11 A2996 RMK A01 T01860108  RH  060%=      5-min Rain = 0
KBY1 150957Z 04007KT 19/11 A2996 RMK A01 T01860107  RH  060%=      5-min Rain = 0
KBY1 150958Z 05007KT 19/11 A2996 RMK A01 T01850107  RH  060%=      5-min Rain = 0
KBY1 150959Z 04008KT 19/11 A2996 RMK A01 T01850107  RH  060%=      5-min Rain = 0
KBY1 151000Z 04008KT 19/11 A2996 RMK A01 T01850106  RH  060%=      5-min Rain = 0
KBY1 151001Z 06007KT 19/11 A2996 RMK A01 T01850106  RH  060%=      5-min Rain = 0
KBY1 151002Z 05007KT 19/11 A2996 RMK A01 T01850106  RH  060%=      5-min Rain = 0
KBY1 151003Z 06008KT 19/11 A2996 RMK A01 T01850106  RH  060%=      5-min Rain = 0
KBY1 151004Z 07007KT 18/11 A2996 RMK A01 T01840105  RH  060%=      5-min Rain = 0
KBY1 151005Z 07006KT 18/11 A2996 RMK A01 T01830106  RH  060%=      5-min Rain = 0
KBY1 151006Z 06007KT 18/11 A2996 RMK A01 T01820105  RH  061%=      5-min Rain = 0
KBY1 151007Z 05005KT 18/11 A2996 RMK A01 T01820105  RH  061%=      5-min Rain = 0
KBY1 151008Z 04006KT 18/11 A2996 RMK A01 T01820105  RH  061%=      5-min Rain = 0
KBY1 151009Z 04008KT 18/11 A2997 RMK A01 T01820105  RH  061%=      5-min Rain = 0
KBY1 151010Z 03008KT 18/11 A2997 RMK A01 T01820105  RH  061%=      5-min Rain = 0
KBY1 151011Z 03008KT 18/11 A2997 RMK A01 T01820105  RH  061%=      5-min Rain = 0
KBY1 151012Z 03008KT 18/11 A2997 RMK A01 T01820105  RH  061%=      5-min Rain = 0
KBY1 151013Z 03008KT 18/11 A2997 RMK A01 T01830105  RH  061%=      5-min Rain = 0
KBY1 151014Z 04007KT 18/11 A2997 RMK A01 T01820106  RH  061%=      5-min Rain = 0
KBY1 151015Z 04005KT 18/11 A2997 RMK A01 T01820106  RH  061%=      5-min Rain = 0
KBY1 151016Z 04006KT 18/11 A2997 RMK A01 T01820106  RH  061%=      5-min Rain = 0
KBY1 151017Z 05005KT 18/11 A2997 RMK A01 T01820106  RH  061%=      5-min Rain = 0
KBY1 151018Z 04005KT 18/11 A2997 RMK A01 T01810106  RH  061%=      5-min Rain = 0
KBY1 151019Z 05005KT 18/11 A2997 RMK A01 T01810106  RH  062%=      5-min Rain = 0
KBY1 151020Z 05004KT 18/11 A2997 RMK A01 T01810106  RH  062%=      5-min Rain = 0
KBY1 151021Z 06004KT 18/11 A2997 RMK A01 T01800106  RH  062%=      5-min Rain = 0
KBY1 151022Z 06005KT 18/11 A2997 RMK A01 T01800107  RH  062%=      5-min Rain = 0
KBY1 151023Z 05005KT 18/11 A2998 RMK A01 T01800107  RH  062%=      5-min Rain = 0
KBY1 151024Z 05004KT 18/11 A2998 RMK A01 T01800108  RH  063%=      5-min Rain = 0
KBY1 151025Z 06006KT 18/11 A2998 RMK A01 T01790108  RH  063%=      5-min Rain = 0
KBY1 151026Z 04004KT 18/11 A2998 RMK A01 T01790108  RH  063%=      5-min Rain = 0
KBY1 151027Z 04004KT 18/11 A2998 RMK A01 T01790108  RH  063%=      5-min Rain = 0
KBY1 151028Z 03004KT 18/11 A2998 RMK A01 T01800108  RH  063%=      5-min Rain = 0
KBY1 151029Z 04004KT 18/11 A2998 RMK A01 T01790108  RH  063%=      5-min Rain = 0
KBY1 151030Z 04004KT 18/11 A2998 RMK A01 T01790108  RH  063%=      5-min Rain = 0
KBY1 151031Z 04004KT 18/11 A2998 RMK A01 T01780108  RH  063%=      5-min Rain = 0
KBY1 151032Z 05003KT 18/11 A2998 RMK A01 T01780108  RH  063%=      5-min Rain = 0
KBY1 151033Z 06003KT 18/11 A2998 RMK A01 T01780108  RH  064%=      5-min Rain = 0
KBY1 151034Z 06003KT 18/11 A2998 RMK A01 T01780109  RH  064%=      5-min Rain = 0
KBY1 151035Z 03003KT 18/11 A2998 RMK A01 T01780109  RH  064%=      5-min Rain = 0
KBY1 151036Z 04002KT 18/11 A2998 RMK A01 T01780109  RH  064%=      5-min Rain = 0
KBY1 151037Z 04001KT 18/11 A2998 RMK A01 T01770108  RH  064%=      5-min Rain = 0
KBY1 151038Z 02001KT 18/11 A2998 RMK A01 T01780108  RH  064%=      5-min Rain = 0
KBY1 151039Z 03001KT 18/11 A2998 RMK A01 T01770108  RH  064%=      5-min Rain = 0
KBY1 151040Z 04002KT 18/11 A2998 RMK A01 T01770109  RH  064%=      5-min Rain = 0
KBY1 151041Z 04003KT 18/11 A2999 RMK A01 T01770109  RH  064%=      5-min Rain = 0
KBY1 151042Z 04003KT 18/11 A2999 RMK A01 T01770109  RH  064%=      5-min Rain = 0
KBY1 151043Z 04004KT 18/11 A2999 RMK A01 T01770109  RH  065%=      5-min Rain = 0
KBY1 151044Z 04004KT 18/11 A2999 RMK A01 T01770110  RH  065%=      5-min Rain = 0
KBY1 151045Z 04003KT 18/11 A2999 RMK A01 T01770110  RH  065%=      5-min Rain = 0
KBY1 151046Z 03004KT 18/11 A2999 RMK A01 T01780110  RH  065%=      5-min Rain = 0
KBY1 151047Z 02006KT 18/11 A2999 RMK A01 T01780110  RH  065%=      5-min Rain = 0
KBY1 151048Z 03005KT 18/11 A2999 RMK A01 T01780110  RH  064%=      5-min Rain = 0
KBY1 151049Z 02005KT 18/11 A2999 RMK A01 T01780110  RH  064%=      5-min Rain = 0
KBY1 151050Z 03006KT 18/11 A2999 RMK A01 T01780110  RH  064%=      5-min Rain = 0
KBY1 151051Z 03006KT 18/11 A2999 RMK A01 T01780110  RH  064%=      5-min Rain = 0
KBY1 151052Z 03007KT 18/11 A2999 RMK A01 T01770110  RH  064%=      5-min Rain = 0
KBY1 151053Z 04007KT 18/11 A2999 RMK A01 T01780110  RH  064%=      5-min Rain = 0
KBY1 151054Z 04006KT 18/11 A2999 RMK A01 T01770110  RH  065%=      5-min Rain = 0
KBY1 151055Z 03006KT 18/11 A2999 RMK A01 T01770110  RH  065%=      5-min Rain = 0
KBY1 151056Z 03006KT 18/11 A2999 RMK A01 T01770110  RH  065%=      5-min Rain = 0
KBY1 151057Z 03007KT 18/11 A2999 RMK A01 T01770110  RH  065%=      5-min Rain = 0
KBY1 151058Z 03006KT 18/11 A2999 RMK A01 T01770110  RH  065%=      5-min Rain = 0
KBY1 151059Z 03006KT 18/11 A2999 RMK A01 T01770111  RH  065%=      5-min Rain = 0
KBY1 151100Z 03006KT 18/11 A2999 RMK A01 T01770111  RH  065%=      5-min Rain = 0
KBY1 151101Z 04006KT 18/11 A2999 RMK A01 T01760110  RH  065%=      5-min Rain = 0
KBY1 151102Z 04005KT 18/11 A2999 RMK A01 T01760111  RH  065%=      5-min Rain = 0
KBY1 151103Z 03005KT 18/11 A2999 RMK A01 T01760111  RH  066%=      5-min Rain = 0
KBY1 151104Z 04005KT 18/11 A2999 RMK A01 T01760111  RH  066%=      5-min Rain = 0
KBY1 151105Z 04004KT 18/11 A2999 RMK A01 T01760111  RH  066%=      5-min Rain = 0
KBY1 151106Z 03004KT 18/11 A2999 RMK A01 T01750112  RH  066%=      5-min Rain = 0
KBY1 151107Z 03004KT 18/11 A2999 RMK A01 T01750112  RH  066%=      5-min Rain = 0
KBY1 151108Z 04004KT 18/11 A30 RMK A01 T01750112  RH  066%=      5-min Rain = 0
KBY1 151109Z 03004KT 18/11 A30 RMK A01 T01750112  RH  066%=      5-min Rain = 0
KBY1 151110Z 04004KT 18/11 A30 RMK A01 T01760113  RH  066%=      5-min Rain = 0
KBY1 151111Z 05004KT 18/11 A2999 RMK A01 T01760113  RH  067%=      5-min Rain = 0
KBY1 151112Z 05004KT 18/11 A2999 RMK A01 T01760113  RH  067%=      5-min Rain = 0
KBY1 151113Z 07004KT 18/11 A2999 RMK A01 T01760114  RH  067%=      5-min Rain = 0
KBY1 151114Z 07005KT 18/11 A2999 RMK A01 T01760114  RH  067%=      5-min Rain = 0
KBY1 151115Z 06004KT 18/12 A2999 RMK A01 T01770115  RH  067%=      5-min Rain = 0
KBY1 151116Z 06005KT 18/12 A2999 RMK A01 T01770115  RH  067%=      5-min Rain = 0
KBY1 151117Z 05005KT 18/12 A2999 RMK A01 T01770116  RH  067%=      5-min Rain = 0
KBY1 151118Z 05004KT 18/12 A2999 RMK A01 T01770116  RH  067%=      5-min Rain = 0
KBY1 151119Z 05004KT 18/12 A30 RMK A01 T01770115  RH  067%=      5-min Rain = 0
KBY1 151120Z 04004KT 18/12 A30 RMK A01 T01770116  RH  067%=      5-min Rain = 0
KBY1 151121Z 06006KT 18/12 A30 RMK A01 T01770116  RH  067%=      5-min Rain = 0
KBY1 151122Z 06006KT 18/12 A30 RMK A01 T01770116  RH  068%=      5-min Rain = 0
KBY1 151123Z 05005KT 18/12 A30 RMK A01 T01770117  RH  068%=      5-min Rain = 0
KBY1 151124Z 05007KT 18/12 A30 RMK A01 T01770117  RH  068%=      5-min Rain = 0
KBY1 151125Z 05006KT 18/12 A30 RMK A01 T01770117  RH  068%=      5-min Rain = 0
KBY1 151126Z 04007KT 18/12 A30 RMK A01 T01770117  RH  068%=      5-min Rain = 0
KBY1 151127Z 04006KT 18/12 A30 RMK A01 T01780117  RH  067%=      5-min Rain = 0
KBY1 151128Z 03008KT 18/12 A30 RMK A01 T01780117  RH  067%=      5-min Rain = 0
KBY1 151129Z 04007KT 18/12 A30 RMK A01 T01780117  RH  067%=      5-min Rain = 0
KBY1 151130Z 04007KT 18/12 A30 RMK A01 T01780117  RH  067%=      5-min Rain = 0
KBY1 151131Z 05008KT 18/12 A30 RMK A01 T01770116  RH  067%=      5-min Rain = 0
KBY1 151132Z 05006KT 18/12 A30 RMK A01 T01760115  RH  067%=      5-min Rain = 0
KBY1 151133Z 05009KT 18/11 A3001 RMK A01 T01760114  RH  067%=      5-min Rain = 0
KBY1 151134Z 05009KT 18/11 A3001 RMK A01 T01760113  RH  067%=      5-min Rain = 0
KBY1 151135Z 04007KT 18/11 A3001 RMK A01 T01760113  RH  067%=      5-min Rain = 0
KBY1 151136Z 04006KT 18/11 A3001 RMK A01 T01750113  RH  067%=      5-min Rain = 0
KBY1 151137Z 04007KT 18/11 A3001 RMK A01 T01750112  RH  066%=      5-min Rain = 0
KBY1 151138Z 05006KT 17/11 A3001 RMK A01 T01740110  RH  066%=      5-min Rain = 0
KBY1 151139Z 04008KT 17/11 A3001 RMK A01 T01740110  RH  066%=      5-min Rain = 0
KBY1 151140Z 04008KT 17/11 A3001 RMK A01 T01740109  RH  066%=      5-min Rain = 0
KBY1 151141Z 03009KT 17/11 A3001 RMK A01 T01730108  RH  065%=      5-min Rain = 0
KBY1 151142Z 03009KT 17/11 A3001 RMK A01 T01720107  RH  065%=      5-min Rain = 0
KBY1 151143Z 03008KT 17/11 A3001 RMK A01 T01720107  RH  065%=      5-min Rain = 0
KBY1 151144Z 03009KT 17/11 A3001 RMK A01 T01710106  RH  065%=      5-min Rain = 0
KBY1 151145Z 04008KT 17/11 A3001 RMK A01 T01700105  RH  065%=      5-min Rain = 0
KBY1 151146Z 04008KT 17/11 A3001 RMK A01 T01700105  RH  066%=      5-min Rain = 0
KBY1 151147Z 04010KT 17/11 A3001 RMK A01 T01690105  RH  066%=      5-min Rain = 0
KBY1 151148Z 04009KT 17/11 A3001 RMK A01 T01690105  RH  066%=      5-min Rain = 0
KBY1 151149Z 03008KT 17/11 A3001 RMK A01 T01680105  RH  066%=      5-min Rain = 0
KBY1 151150Z 03009KT 17/11 A3001 RMK A01 T01680105  RH  066%=      5-min Rain = 0
KBY1 151151Z 03008KT 17/11 A3001 RMK A01 T01680105  RH  066%=      5-min Rain = 0
KBY1 151152Z 03008KT 17/10 A3002 RMK A01 T01670104  RH  066%=      5-min Rain = 0
KBY1 151153Z 03010KT 17/10 A3002 RMK A01 T01670104  RH  067%=      5-min Rain = 0
KBY1 151154Z 03011KT 17/11 A3002 RMK A01 T01670105  RH  067%=      5-min Rain = 0
KBY1 151155Z 03010KT 17/11 A3002 RMK A01 T01670105  RH  067%=      5-min Rain = 0
KBY1 151156Z 04010KT 17/11 A3002 RMK A01 T01660105  RH  067%=      5-min Rain = 0
KBY1 151157Z 04010KT 17/11 A3002 RMK A01 T01660105  RH  067%=      5-min Rain = 0
KBY1 151158Z 04007KT 17/11 A3002 RMK A01 T01660105  RH  067%=      5-min Rain = 0
KBY1 151159Z 04010KT 17/11 A3002 RMK A01 T01660105  RH  067%=      5-min Rain = 0
KBY1 151200Z 04009G15KT 17/11 A3002 RMK A01 T01660105  RH  067%=      5-min Rain = 0
KBY1 151201Z 03010KT 17/11 A3002 RMK A01 T01660105  RH  067%=      5-min Rain = 0
KBY1 151202Z 03010KT 17/11 A3002 RMK A01 T01660105  RH  067%=      5-min Rain = 0
KBY1 151203Z 03011KT 17/11 A3003 RMK A01 T01660105  RH  067%=      5-min Rain = 0
KBY1 151204Z 03010KT 17/11 A3003 RMK A01 T01660105  RH  067%=      5-min Rain = 0
KBY1 151205Z 03010KT 17/11 A3003 RMK A01 T01670105  RH  067%=      5-min Rain = 0
KBY1 151206Z 03011KT 17/11 A3003 RMK A01 T01660105  RH  067%=      5-min Rain = 0
KBY1 151207Z 03011KT 17/11 A3003 RMK A01 T01670106  RH  067%=      5-min Rain = 0
KBY1 151208Z 03011KT 17/11 A3003 RMK A01 T01670106  RH  067%=      5-min Rain = 0
KBY1 151209Z 03013KT 17/11 A3003 RMK A01 T01680106  RH  067%=      5-min Rain = 0
KBY1 151210Z 03011KT 17/11 A3003 RMK A01 T01680106  RH  067%=      5-min Rain = 0
KBY1 151211Z 03012KT 17/11 A3003 RMK A01 T01680106  RH  067%=      5-min Rain = 0
KBY1 151212Z 03011KT 17/11 A3003 RMK A01 T01680106  RH  067%=      5-min Rain = 0
KBY1 151213Z 03012KT 17/11 A3003 RMK A01 T01680106  RH  067%=      5-min Rain = 0
KBY1 151214Z 03013KT 17/11 A3003 RMK A01 T01680106  RH  067%=      5-min Rain = 0
KBY1 151215Z 03010KT 17/11 A3003 RMK A01 T01680106  RH  067%=      5-min Rain = 0
KBY1 151216Z 03011KT 17/11 A3003 RMK A01 T01690106  RH  067%=      5-min Rain = 0
KBY1 151217Z 03013KT 17/11 A3003 RMK A01 T01690106  RH  067%=      5-min Rain = 0
KBY1 151218Z 03014KT 17/11 A3004 RMK A01 T01690106  RH  067%=      5-min Rain = 0
KBY1 151219Z 03011KT 17/11 A3004 RMK A01 T01690107  RH  066%=      5-min Rain = 0
KBY1 151220Z 03010G17KT 17/11 A3004 RMK A01 T01700107  RH  066%=      5-min Rain = 0
KBY1 151221Z 04015G20KT 17/11 A3004 RMK A01 T01700107  RH  066%=      5-min Rain = 0
KBY1 151222Z 04013KT 17/11 A3004 RMK A01 T01710106  RH  066%=      5-min Rain = 0
KBY1 151223Z 05012KT 17/11 A3004 RMK A01 T01710107  RH  066%=      5-min Rain = 0
KBY1 151224Z 05012KT 17/11 A3004 RMK A01 T01720107  RH  066%=      5-min Rain = 0
KBY1 151225Z 05009KT 17/11 A3004 RMK A01 T01720107  RH  065%=      5-min Rain = 0
KBY1 151226Z 05013KT 17/11 A3004 RMK A01 T01730107  RH  065%=      5-min Rain = 0
KBY1 151227Z 05013KT 17/11 A3004 RMK A01 T01730107  RH  065%=      5-min Rain = 0
KBY1 151228Z 05012KT 17/11 A3003 RMK A01 T01730107  RH  065%=      5-min Rain = 0
KBY1 151229Z 05014KT 17/11 A3004 RMK A01 T01730107  RH  065%=      5-min Rain = 0
KBY1 151230Z 05012KT 17/11 A3004 RMK A01 T01730107  RH  065%=      5-min Rain = 0
KBY1 151231Z 05012KT 17/11 A3004 RMK A01 T01740107  RH  065%=      5-min Rain = 0
KBY1 151232Z 05010G16KT 17/11 A3004 RMK A01 T01740108  RH  065%=      5-min Rain = 0
KBY1 151233Z 05013KT 17/11 A3004 RMK A01 T01740107  RH  065%=      5-min Rain = 0
KBY1 151234Z 06014KT 18/11 A3004 RMK A01 T01750108  RH  065%=      5-min Rain = 0
KBY1 151235Z 06015KT 18/11 A3004 RMK A01 T01750108  RH  065%=      5-min Rain = 0
KBY1 151236Z 06013KT 18/11 A3004 RMK A01 T01760108  RH  064%=      5-min Rain = 0
KBY1 151237Z 05012KT 18/11 A3004 RMK A01 T01760108  RH  064%=      5-min Rain = 0
KBY1 151238Z 05012KT 18/11 A3004 RMK A01 T01770109  RH  064%=      5-min Rain = 0
KBY1 151239Z 05011KT 18/11 A3004 RMK A01 T01770108  RH  064%=      5-min Rain = 0
KBY1 151240Z 05009KT 18/11 A3004 RMK A01 T01780109  RH  064%=      5-min Rain = 0
KBY1 151241Z 06012KT 18/11 A3004 RMK A01 T01780109  RH  064%=      5-min Rain = 0
KBY1 151242Z 06014KT 18/11 A3005 RMK A01 T01780110  RH  064%=      5-min Rain = 0
KBY1 151243Z 05013KT 18/11 A3005 RMK A01 T01770110  RH  064%=      5-min Rain = 0
KBY1 151244Z 05014KT 18/11 A3005 RMK A01 T01770109  RH  064%=      5-min Rain = 0
KBY1 151245Z 05010KT 18/11 A3005 RMK A01 T01780110  RH  064%=      5-min Rain = 0
KBY1 151246Z 05011KT 18/11 A3005 RMK A01 T01780110  RH  064%=      5-min Rain = 0
KBY1 151247Z 05012KT 18/11 A3005 RMK A01 T01780110  RH  064%=      5-min Rain = 0
KBY1 151248Z 05011KT 18/11 A3005 RMK A01 T01780110  RH  064%=      5-min Rain = 0
KBY1 151249Z 05012KT 18/11 A3005 RMK A01 T01790110  RH  064%=      5-min Rain = 0
KBY1 151250Z 05008KT 18/11 A3005 RMK A01 T01790111  RH  064%=      5-min Rain = 0
KBY1 151251Z 04012G17KT 18/11 A3005 RMK A01 T01800111  RH  064%=      5-min Rain = 0
KBY1 151252Z 05014G19KT 18/11 A3005 RMK A01 T01810111  RH  064%=      5-min Rain = 0
KBY1 151253Z 05013KT 18/11 A3005 RMK A01 T01800111  RH  064%=      5-min Rain = 0
KBY1 151254Z 06014KT 18/11 A3005 RMK A01 T01810111  RH  064%=      5-min Rain = 0
KBY1 151255Z 05013KT 18/11 A3005 RMK A01 T01810111  RH  064%=      5-min Rain = 0
KBY1 151256Z 06017KT 18/11 A3005 RMK A01 T01820111  RH  063%=      5-min Rain = 0
KBY1 151257Z 06015KT 18/11 A3005 RMK A01 T01830111  RH  063%=      5-min Rain = 0
KBY1 151258Z 06013KT 18/11 A3005 RMK A01 T01840111  RH  062%=      5-min Rain = 0
KBY1 151259Z 06014G21KT 19/11 A3005 RMK A01 T01850112  RH  062%=      5-min Rain = 0
KBY1 151300Z 05016G21KT 19/11 A3005 RMK A01 T01860113  RH  062%=      5-min Rain = 0
KBY1 151301Z 05016KT 19/11 A3005 RMK A01 T01870114  RH  063%=      5-min Rain = 0
KBY1 151302Z 05014KT 19/12 A3005 RMK A01 T01870115  RH  063%=      5-min Rain = 0
KBY1 151303Z 05011G16KT 19/12 A3005 RMK A01 T01880116  RH  063%=      5-min Rain = 0
KBY1 151304Z 05015KT 19/12 A3005 RMK A01 T01880118  RH  064%=      5-min Rain = 0
KBY1 151305Z 06012KT 19/12 A3005 RMK A01 T01870119  RH  064%=      5-min Rain = 0
KBY1 151306Z 06012G20KT 19/12 A3005 RMK A01 T01870119  RH  065%=      5-min Rain = 0
KBY1 151307Z 06014KT 19/12 A3005 RMK A01 T01870121  RH  065%=      5-min Rain = 0
KBY1 151308Z 04011KT 19/12 A3005 RMK A01 T01870121  RH  065%=      5-min Rain = 0
KBY1 151309Z 04012G17KT 19/12 A3005 RMK A01 T01870121  RH  065%=      5-min Rain = 0
KBY1 151310Z 04010G15KT 19/12 A3006 RMK A01 T01870122  RH  066%=      5-min Rain = 0
KBY1 151311Z 04015KT 19/12 A3006 RMK A01 T01870122  RH  066%=      5-min Rain = 0
KBY1 151312Z 05015KT 19/12 A3006 RMK A01 T01870123  RH  066%=      5-min Rain = 0
KBY1 151313Z 05012KT 19/12 A3006 RMK A01 T01880124  RH  066%=      5-min Rain = 0
KBY1 151314Z 04014KT 19/13 A3006 RMK A01 T01890125  RH  066%=      5-min Rain = 0
KBY1 151315Z 04014KT 19/13 A3006 RMK A01 T01900126  RH  066%=      5-min Rain = 0
KBY1 151316Z 05012G17KT 19/13 A3006 RMK A01 T01900126  RH  066%=      5-min Rain = 0
KBY1 151317Z 04011KT 19/13 A3006 RMK A01 T01900127  RH  066%=      5-min Rain = 0
KBY1 151318Z 04010KT 19/13 A3006 RMK A01 T01910127  RH  067%=      5-min Rain = 0
KBY1 151319Z 04014G19KT 19/13 A3006 RMK A01 T01900128  RH  067%=      5-min Rain = 0
KBY1 151320Z 04012KT 19/13 A3006 RMK A01 T01900128  RH  067%=      5-min Rain = 0
KBY1 151321Z 04011KT 19/13 A3006 RMK A01 T01900129  RH  068%=      5-min Rain = 0
KBY1 151322Z 04014KT 19/13 A3006 RMK A01 T01900129  RH  068%=      5-min Rain = 0
KBY1 151323Z 05015KT 19/13 A3006 RMK A01 T01900129  RH  067%=      5-min Rain = 0
KBY1 151324Z 06014KT 19/13 A3006 RMK A01 T01900129  RH  068%=      5-min Rain = 0
KBY1 151325Z 05012KT 19/13 A3006 RMK A01 T01900130  RH  068%=      5-min Rain = 0
KBY1 151326Z 05014KT 19/13 A3006 RMK A01 T01910131  RH  068%=      5-min Rain = 0
KBY1 151327Z 05013KT 19/13 A3006 RMK A01 T01910131  RH  068%=      5-min Rain = 0
KBY1 151328Z 06016KT 19/13 A3006 RMK A01 T01910132  RH  068%=      5-min Rain = 0
KBY1 151329Z 06016KT 19/13 A3006 RMK A01 T01910132  RH  069%=      5-min Rain = 0
KBY1 151330Z 07012KT 19/13 A3006 RMK A01 T01910133  RH  069%=      5-min Rain = 0
KBY1 151331Z 06016G21KT 19/13 A3006 RMK A01 T01910133  RH  069%=      5-min Rain = 0
KBY1 151332Z 05014KT 19/13 A3006 RMK A01 T01910133  RH  069%=      5-min Rain = 0
KBY1 151333Z 06014G19KT 19/13 A3006 RMK A01 T01910133  RH  069%=      5-min Rain = 0
KBY1 151334Z 05009KT 19/13 A3006 RMK A01 T01910134  RH  070%=      5-min Rain = 0
KBY1 151335Z 06011KT 19/14 A3006 RMK A01 T01930136  RH  069%=      5-min Rain = 0
KBY1 151336Z 05010KT 19/14 A3006 RMK A01 T01940136  RH  069%=      5-min Rain = 0
KBY1 151337Z 04015KT 20/14 A3006 RMK A01 T01950136  RH  069%=      5-min Rain = 0
KBY1 151338Z 05015KT 20/14 A3006 RMK A01 T01950135  RH  069%=      5-min Rain = 0
KBY1 151339Z 05015KT 19/14 A3006 RMK A01 T01940135  RH  069%=      5-min Rain = 0
KBY1 151340Z 06015KT 19/14 A3006 RMK A01 T01930135  RH  069%=      5-min Rain = 0
KBY1 151341Z 05016KT 19/14 A3006 RMK A01 T01940136  RH  069%=      5-min Rain = 0
KBY1 151342Z 05012G18KT 19/14 A3006 RMK A01 T01940136  RH  069%=      5-min Rain = 0
KBY1 151343Z 05017KT 19/14 A3006 RMK A01 T01940135  RH  068%=      5-min Rain = 0
KBY1 151344Z 05015KT 20/14 A3007 RMK A01 T01950135  RH  068%=      5-min Rain = 0
KBY1 151345Z 05011KT 20/14 A3007 RMK A01 T01950136  RH  068%=      5-min Rain = 0
KBY1 151346Z 06016KT 20/14 A3007 RMK A01 T01960136  RH  068%=      5-min Rain = 0
KBY1 151347Z 06014KT 20/14 A3007 RMK A01 T01970137  RH  068%=      5-min Rain = 0
KBY1 151348Z 06016KT 20/14 A3007 RMK A01 T01960137  RH  068%=      5-min Rain = 0
KBY1 151349Z 04012G17KT 20/14 A3007 RMK A01 T01960137  RH  069%=      5-min Rain = 0
KBY1 151350Z 05014KT 20/14 A3007 RMK A01 T01960137  RH  068%=      5-min Rain = 0
KBY1 151351Z 05015KT 20/14 A3007 RMK A01 T01980137  RH  068%=      5-min Rain = 0
KBY1 151352Z 05017KT 20/14 A3007 RMK A01 T01980137  RH  068%=      5-min Rain = 0
KBY1 151353Z 06015KT 20/14 A3007 RMK A01 T01980137  RH  068%=      5-min Rain = 0
KBY1 151354Z 06017KT 20/14 A3007 RMK A01 T01970136  RH  068%=      5-min Rain = 0
KBY1 151355Z 06017KT 20/14 A3007 RMK A01 T01970136  RH  068%=      5-min Rain = 0
KBY1 151356Z 07015KT 20/14 A3007 RMK A01 T01970137  RH  068%=      5-min Rain = 0
KBY1 151357Z 06013KT 20/14 A3007 RMK A01 T01980138  RH  068%=      5-min Rain = 0
KBY1 151358Z 06013KT 20/14 A3007 RMK A01 T01990138  RH  068%=      5-min Rain = 0
KBY1 151359Z 05012KT 20/14 A3007 RMK A01 T01990138  RH  068%=      5-min Rain = 0
KBY1 151400Z 06012KT 20/14 A3008 RMK A01 T02010139  RH  067%=      5-min Rain = 0
KBY1 151401Z 06012KT 20/14 A3008 RMK A01 T02020138  RH  067%=      5-min Rain = 0
KBY1 151402Z 06012G17KT 20/14 A3008 RMK A01 T02020139  RH  067%=      5-min Rain = 0
KBY1 151403Z 06009KT 20/14 A3008 RMK A01 T02030139  RH  067%=      5-min Rain = 0
KBY1 151404Z 06010KT 20/14 A3008 RMK A01 T02040140  RH  066%=      5-min Rain = 0
KBY1 151405Z 07013KT 21/14 A3008 RMK A01 T02060140  RH  066%=      5-min Rain = 0
KBY1 151406Z 07011KT 21/14 A3008 RMK A01 T02060139  RH  065%=      5-min Rain = 0
KBY1 151407Z 05010KT 21/14 A3008 RMK A01 T02050140  RH  066%=      5-min Rain = 0
KBY1 151408Z 05014G19KT 21/14 A3008 RMK A01 T02060140  RH  066%=      5-min Rain = 0
KBY1 151409Z 06016KT 21/14 A3008 RMK A01 T02050139  RH  066%=      5-min Rain = 0
KBY1 151410Z 06015KT 20/14 A3008 RMK A01 T02020139  RH  067%=      5-min Rain = 0
KBY1 151411Z 07011KT 20/14 A3008 RMK A01 T02010140  RH  068%=      5-min Rain = 0
KBY1 151412Z 07015KT 20/14 A3008 RMK A01 T02020140  RH  068%=      5-min Rain = 0
KBY1 151413Z 07017KT 20/14 A3008 RMK A01 T02020141  RH  068%=      5-min Rain = 0
KBY1 151414Z 05015G20KT 20/14 A3008 RMK A01 T02010141  RH  068%=      5-min Rain = 0
KBY1 151415Z 04014KT 20/14 A3008 RMK A01 T01990141  RH  069%=      5-min Rain = 0
KBY1 151416Z 05013KT 20/14 A3008 RMK A01 T01980141  RH  069%=      5-min Rain = 0
KBY1 151417Z 05015KT 20/14 A3008 RMK A01 T01980141  RH  070%=      5-min Rain = 0
KBY1 151418Z 06016KT 20/14 A3008 RMK A01 T01970141  RH  070%=      5-min Rain = 0
KBY1 151419Z 05013KT 20/14 A3009 RMK A01 T01970142  RH  070%=      5-min Rain = 0
KBY1 151420Z 05015KT 20/14 A3009 RMK A01 T01970141  RH  070%=      5-min Rain = 0
KBY1 151421Z 06014KT 20/14 A3009 RMK A01 T01980141  RH  070%=      5-min Rain = 0
KBY1 151422Z 07013KT 20/14 A3009 RMK A01 T01970141  RH  070%=      5-min Rain = 0
KBY1 151423Z 05012KT 20/14 A3009 RMK A01 T01990142  RH  070%=      5-min Rain = 0
KBY1 151424Z 06013G20KT 20/14 A3009 RMK A01 T02010142  RH  069%=      5-min Rain = 0
KBY1 151425Z 06012KT 20/14 A3009 RMK A01 T02020142  RH  068%=      5-min Rain = 0
KBY1 151426Z 06015KT 20/14 A3009 RMK A01 T02020141  RH  068%=      5-min Rain = 0
KBY1 151427Z 07015KT 20/14 A3009 RMK A01 T02020141  RH  068%=      5-min Rain = 0
KBY1 151428Z 06012KT 20/14 A3009 RMK A01 T02010140  RH  068%=      5-min Rain = 0
KBY1 151429Z 06012KT 20/14 A3009 RMK A01 T02010141  RH  068%=      5-min Rain = 0
KBY1 151430Z 05014G20KT 20/14 A3009 RMK A01 T02030142  RH  068%=      5-min Rain = 0
KBY1 151431Z 06015KT 20/14 A3009 RMK A01 T02030141  RH  067%=      5-min Rain = 0
KBY1 151432Z 06012KT 20/14 A3009 RMK A01 T02030142  RH  068%=      5-min Rain = 0
KBY1 151433Z 05012KT 20/14 A3009 RMK A01 T02030142  RH  068%=      5-min Rain = 0
KBY1 151434Z 05014KT 20/14 A3009 RMK A01 T02040141  RH  067%=      5-min Rain = 0
KBY1 151435Z 06014KT 21/14 A3009 RMK A01 T02050141  RH  067%=      5-min Rain = 0
KBY1 151436Z 06013G18KT 20/14 A3009 RMK A01 T02040141  RH  067%=      5-min Rain = 0
KBY1 151437Z 06013G19KT 20/14 A3009 RMK A01 T02040142  RH  068%=      5-min Rain = 0
KBY1 151438Z 06015KT 21/14 A3009 RMK A01 T02050141  RH  067%=      5-min Rain = 0
KBY1 151439Z 06013KT 21/14 A3009 RMK A01 T02050142  RH  067%=      5-min Rain = 0
KBY1 151440Z 06015KT 20/14 A3009 RMK A01 T02040142  RH  067%=      5-min Rain = 0
KBY1 151441Z 06012KT 20/14 A3009 RMK A01 T02040142  RH  068%=      5-min Rain = 0
KBY1 151442Z 06013KT 20/14 A3009 RMK A01 T02030142  RH  068%=      5-min Rain = 0
KBY1 151443Z 06013KT 20/14 A3009 RMK A01 T02030142  RH  068%=      5-min Rain = 0
KBY1 151444Z 05013KT 20/14 A3009 RMK A01 T02040141  RH  067%=      5-min Rain = 0
KBY1 151445Z 05010KT 20/14 A3009 RMK A01 T02040142  RH  067%=      5-min Rain = 0
KBY1 151446Z 06012KT 20/14 A3009 RMK A01 T02040142  RH  067%=      5-min Rain = 0
KBY1 151447Z 06014KT 21/14 A3009 RMK A01 T02060141  RH  066%=      5-min Rain = 0
KBY1 151448Z 06014KT 21/14 A3009 RMK A01 T02070141  RH  066%=      5-min Rain = 0
KBY1 151449Z 07015KT 21/14 A3009 RMK A01 T02080141  RH  066%=      5-min Rain = 0
KBY1 151450Z 06015KT 21/14 A3009 RMK A01 T02080140  RH  065%=      5-min Rain = 0
KBY1 151451Z 05016KT 21/14 A3009 RMK A01 T02060140  RH  065%=      5-min Rain = 0
KBY1 151452Z 06015KT 21/14 A3009 RMK A01 T02060140  RH  066%=      5-min Rain = 0
KBY1 151453Z 06015KT 21/14 A3009 RMK A01 T02050141  RH  067%=      5-min Rain = 0
KBY1 151454Z 06013KT 20/14 A3009 RMK A01 T02040140  RH  067%=      5-min Rain = 0
KBY1 151455Z 07014KT 21/14 A3009 RMK A01 T02060141  RH  067%=      5-min Rain = 0
KBY1 151456Z 06013KT 21/14 A3009 RMK A01 T02090142  RH  065%=      5-min Rain = 0
KBY1 151457Z 07013G18KT 21/14 A3009 RMK A01 T02140142  RH  064%=      5-min Rain = 0
KBY1 151458Z 07014KT 22/14 A3009 RMK A01 T02150141  RH  062%=      5-min Rain = 0
KBY1 151459Z 07013KT 22/14 A3009 RMK A01 T02150141  RH  063%=      5-min Rain = 0
KBY1 151500Z 08013KT 22/14 A3009 RMK A01 T02150142  RH  063%=      5-min Rain = 0
KBY1 151501Z 07016KT 22/14 A3009 RMK A01 T02160140  RH  062%=      5-min Rain = 0
KBY1 151502Z 07013KT 22/14 A3009 RMK A01 T02150140  RH  062%=      5-min Rain = 0
KBY1 151503Z 07011KT 22/14 A3009 RMK A01 T02150142  RH  063%=      5-min Rain = 0
KBY1 151504Z 06013KT 22/14 A3009 RMK A01 T02170142  RH  062%=      5-min Rain = 0
KBY1 151505Z 04015KT 22/14 A3009 RMK A01 T02180141  RH  062%=      5-min Rain = 0
KBY1 151506Z 07016KT 22/14 A3009 RMK A01 T02180141  RH  062%=      5-min Rain = 0
KBY1 151507Z 06014KT 22/14 A3009 RMK A01 T02150140  RH  062%=      5-min Rain = 0
KBY1 151508Z 07017KT 21/14 A3009 RMK A01 T02140140  RH  063%=      5-min Rain = 0
KBY1 151509Z 06014KT 22/14 A3008 RMK A01 T02150141  RH  063%=      5-min Rain = 0
KBY1 151510Z 06015KT 22/14 A3008 RMK A01 T02180141  RH  062%=      5-min Rain = 0
KBY1 151511Z 06013KT 22/14 A3008 RMK A01 T02180142  RH  062%=      5-min Rain = 0
KBY1 151512Z 08015KT 22/14 A3008 RMK A01 T02200143  RH  062%=      5-min Rain = 0
KBY1 151513Z 08016G21KT 22/14 A3008 RMK A01 T02210142  RH  061%=      5-min Rain = 0
KBY1 151514Z 08012KT 22/14 A3008 RMK A01 T02220143  RH  061%=      5-min Rain = 0
KBY1 151515Z 08013KT 22/14 A3009 RMK A01 T02240143  RH  060%=      5-min Rain = 0
KBY1 151516Z 07011KT 23/14 A3009 RMK A01 T02250142  RH  060%=      5-min Rain = 0
KBY1 151517Z 06013KT 22/14 A301 RMK A01 T02210140  RH  060%=      5-min Rain = 0
KBY1 151518Z 04009KT 22/14 A301 RMK A01 T02150138  RH  061%=      5-min Rain = 0
KBY1 151519Z 05009KT 21/14 A301 RMK A01 T02140141  RH  063%=      5-min Rain = 0
KBY1 151520Z 06009KT 22/14 A301 RMK A01 T02150140  RH  062%=      5-min Rain = 0
KBY1 151521Z 08010KT 22/14 A301 RMK A01 T02150140  RH  062%=      5-min Rain = 0
KBY1 151522Z 07011KT 21/14 A3009 RMK A01 T02130140  RH  063%=      5-min Rain = 0
KBY1 151523Z 06013KT 21/14 A3009 RMK A01 T02120140  RH  063%=      5-min Rain = 0
KBY1 151524Z 05012KT 21/14 A301 RMK A01 T02120139  RH  063%=      5-min Rain = 0
KBY1 151525Z 04008KT 21/14 A301 RMK A01 T02120139  RH  063%=      5-min Rain = 0
KBY1 151526Z 04010KT 21/14 A301 RMK A01 T02120140  RH  063%=      5-min Rain = 0
KBY1 151527Z 06009KT 21/14 A301 RMK A01 T02130140  RH  063%=      5-min Rain = 0
KBY1 151528Z 07009KT 22/14 A301 RMK A01 T02150140  RH  062%=      5-min Rain = 0
KBY1 151529Z 08010KT 21/14 A301 RMK A01 T02140140  RH  063%=      5-min Rain = 0
KBY1 151530Z 08013KT 21/14 A301 RMK A01 T02140140  RH  063%=      5-min Rain = 0
KBY1 151531Z 08012KT 21/14 A3009 RMK A01 T02130138  RH  062%=      5-min Rain = 0
KBY1 151532Z 06011KT 21/14 A3009 RMK A01 T02110139  RH  063%=      5-min Rain = 0
KBY1 151533Z 06014KT 21/14 A3009 RMK A01 T02120140  RH  063%=      5-min Rain = 0
KBY1 151534Z 05014KT 21/14 A3009 RMK A01 T02130139  RH  062%=      5-min Rain = 0
KBY1 151535Z 06013KT 21/14 A3009 RMK A01 T02130140  RH  063%=      5-min Rain = 0
KBY1 151536Z 06016KT 22/14 A3009 RMK A01 T02160140  RH  062%=      5-min Rain = 0
KBY1 151537Z 06014KT 22/14 A3009 RMK A01 T02160139  RH  062%=      5-min Rain = 0
KBY1 151538Z 06013KT 22/14 A3009 RMK A01 T02150140  RH  062%=      5-min Rain = 0
KBY1 151539Z 07011KT 22/14 A3009 RMK A01 T02160141  RH  062%=      5-min Rain = 0
KBY1 151540Z 06014KT 22/14 A3009 RMK A01 T02170140  RH  061%=      5-min Rain = 0
KBY1 151541Z 05011KT 22/14 A3009 RMK A01 T02160139  RH  062%=      5-min Rain = 0
KBY1 151542Z 08012KT 22/14 A3009 RMK A01 T02160140  RH  062%=      5-min Rain = 0
KBY1 151543Z 08010KT 22/14 A3009 RMK A01 T02170140  RH  062%=      5-min Rain = 0
KBY1 151544Z 08012KT 22/14 A3009 RMK A01 T02170140  RH  062%=      5-min Rain = 0
KBY1 151545Z 09012KT 22/14 A3009 RMK A01 T02180141  RH  062%=      5-min Rain = 0
KBY1 151546Z 09011KT 22/14 A3009 RMK A01 T02190142  RH  061%=      5-min Rain = 0
KBY1 151547Z 08012KT 22/14 A3009 RMK A01 T02190140  RH  061%=      5-min Rain = 0
KBY1 151548Z 08010KT 22/14 A301 RMK A01 T02190140  RH  061%=      5-min Rain = 0
KBY1 151549Z 06009KT 22/14 A301 RMK A01 T02200140  RH  061%=      5-min Rain = 0
KBY1 151550Z 06008KT 22/14 A301 RMK A01 T02210139  RH  060%=      5-min Rain = 0
KBY1 151551Z 05008KT 22/14 A301 RMK A01 T02220141  RH  060%=      5-min Rain = 0
KBY1 151552Z 06007KT 22/14 A301 RMK A01 T02220140  RH  060%=      5-min Rain = 0
KBY1 151553Z 09009KT 22/14 A3011 RMK A01 T02220139  RH  059%=      5-min Rain = 0
KBY1 151554Z 10011KT 22/14 A301 RMK A01 T02200138  RH  059%=      5-min Rain = 0
KBY1 151555Z 08012KT 22/14 A301 RMK A01 T02180139  RH  061%=      5-min Rain = 0
KBY1 151556Z 07011KT 22/14 A301 RMK A01 T02180139  RH  061%=      5-min Rain = 0
KBY1 151557Z 09012KT 22/14 A301 RMK A01 T02190141  RH  061%=      5-min Rain = 0
KBY1 151558Z 09014KT 22/14 A301 RMK A01 T02200139  RH  060%=      5-min Rain = 0
KBY1 151559Z 07014KT 22/14 A301 RMK A01 T02190138  RH  060%=      5-min Rain = 0
KBY1 151600Z 07013KT 22/14 A301 RMK A01 T02180138  RH  061%=      5-min Rain = 0
KBY1 151601Z 06014KT 22/14 A301 RMK A01 T02180138  RH  061%=      5-min Rain = 0
KBY1 151602Z 07016KT 22/14 A301 RMK A01 T02190138  RH  060%=      5-min Rain = 0
KBY1 151603Z 07014KT 22/14 A301 RMK A01 T02190138  RH  060%=      5-min Rain = 0
KBY1 151604Z 06009G14KT 22/14 A301 RMK A01 T02180138  RH  060%=      5-min Rain = 0
KBY1 151605Z 05011KT 22/14 A3011 RMK A01 T02180138  RH  060%=      5-min Rain = 0
KBY1 151606Z 06011KT 22/14 A3011 RMK A01 T02190137  RH  060%=      5-min Rain = 0
KBY1 151607Z 07010KT 22/14 A3011 RMK A01 T02200138  RH  060%=      5-min Rain = 0
KBY1 151608Z 06011KT 22/14 A3011 RMK A01 T02200137  RH  059%=      5-min Rain = 0
KBY1 151609Z 06011KT 22/14 A3011 RMK A01 T02180137  RH  060%=      5-min Rain = 0
KBY1 151610Z 06012G18KT 22/14 A3011 RMK A01 T02170137  RH  060%=      5-min Rain = 0
KBY1 151611Z 06015KT 22/14 A301 RMK A01 T02170138  RH  061%=      5-min Rain = 0
KBY1 151612Z 06013KT 22/14 A301 RMK A01 T02160137  RH  061%=      5-min Rain = 0
KBY1 151613Z 08012KT 22/14 A301 RMK A01 T02160138  RH  061%=      5-min Rain = 0
KBY1 151614Z 08013KT 22/14 A301 RMK A01 T02190140  RH  061%=      5-min Rain = 0
KBY1 151615Z 08012KT 22/14 A301 RMK A01 T02230142  RH  060%=      5-min Rain = 0
KBY1 151616Z 07013KT 23/14 A301 RMK A01 T02270141  RH  058%=      5-min Rain = 0
KBY1 151617Z 07012KT 23/14 A301 RMK A01 T02270140  RH  058%=      5-min Rain = 0
KBY1 151618Z 07010KT 23/14 A3009 RMK A01 T02260141  RH  059%=      5-min Rain = 0
KBY1 151619Z 08012KT 23/14 A3009 RMK A01 T02270141  RH  058%=      5-min Rain = 0
KBY1 151620Z 09012KT 23/14 A301 RMK A01 T02270140  RH  058%=      5-min Rain = 0
KBY1 151621Z 08011KT 23/14 A301 RMK A01 T02270141  RH  058%=      5-min Rain = 0
KBY1 151622Z 09014KT 23/14 A301 RMK A01 T02280141  RH  058%=      5-min Rain = 0
KBY1 151623Z 09016KT 23/14 A301 RMK A01 T02290139  RH  057%=      5-min Rain = 0
KBY1 151624Z 07013KT 23/14 A301 RMK A01 T02290140  RH  057%=      5-min Rain = 0
KBY1 151625Z 08012KT 23/14 A301 RMK A01 T02310142  RH  057%=      5-min Rain = 0
KBY1 151626Z 07012KT 23/14 A301 RMK A01 T02330141  RH  056%=      5-min Rain = 0
KBY1 151627Z 07012KT 23/14 A301 RMK A01 T02320142  RH  057%=      5-min Rain = 0
KBY1 151628Z 09010KT 23/14 A301 RMK A01 T02300141  RH  057%=      5-min Rain = 0
KBY1 151629Z 08012KT 23/14 A301 RMK A01 T02280140  RH  057%=      5-min Rain = 0
KBY1 151630Z 08009KT 23/14 A301 RMK A01 T02270140  RH  058%=      5-min Rain = 0
KBY1 151631Z 08010KT 23/14 A301 RMK A01 T02260141  RH  058%=      5-min Rain = 0
KBY1 151632Z 06009KT 23/14 A301 RMK A01 T02270140  RH  058%=      5-min Rain = 0
KBY1 151633Z 05010KT 23/14 A301 RMK A01 T02280141  RH  058%=      5-min Rain = 0
KBY1 151634Z 08012G17KT 23/14 A301 RMK A01 T02280141  RH  058%=      5-min Rain = 0
KBY1 151635Z 07014KT 23/14 A301 RMK A01 T02270140  RH  058%=      5-min Rain = 0
KBY1 151636Z 08014KT 22/14 A301 RMK A01 T02230139  RH  059%=      5-min Rain = 0
KBY1 151637Z 08015KT 22/14 A301 RMK A01 T02220139  RH  060%=      5-min Rain = 0
KBY1 151638Z 08010KT 22/14 A301 RMK A01 T02200140  RH  060%=      5-min Rain = 0
KBY1 151639Z 07010KT 22/14 A301 RMK A01 T02200141  RH  061%=      5-min Rain = 0
KBY1 151640Z 08010KT 22/14 A301 RMK A01 T02210141  RH  060%=      5-min Rain = 0
KBY1 151641Z 08013KT 22/14 A301 RMK A01 T02230141  RH  060%=      5-min Rain = 0
KBY1 151642Z 08011KT 23/14 A301 RMK A01 T02250142  RH  059%=      5-min Rain = 0
KBY1 151643Z 07015KT 23/14 A301 RMK A01 T02270142  RH  059%=      5-min Rain = 0
KBY1 151644Z 08013KT 23/14 A301 RMK A01 T02250141  RH  059%=      5-min Rain = 0
KBY1 151645Z 06013KT 23/14 A301 RMK A01 T02250142  RH  059%=      5-min Rain = 0
KBY1 151646Z 07013KT 23/14 A301 RMK A01 T02270142  RH  059%=      5-min Rain = 0
KBY1 151647Z 08015KT 23/14 A301 RMK A01 T02310142  RH  057%=      5-min Rain = 0
KBY1 151648Z 08015KT 23/14 A301 RMK A01 T02320143  RH  057%=      5-min Rain = 0
KBY1 151649Z 09013KT 23/14 A301 RMK A01 T02320143  RH  057%=      5-min Rain = 0
KBY1 151650Z 08013KT 23/14 A301 RMK A01 T02300141  RH  057%=      5-min Rain = 0
KBY1 151651Z 08013KT 23/14 A301 RMK A01 T02270141  RH  058%=      5-min Rain = 0
KBY1 151652Z 07012KT 23/14 A301 RMK A01 T02250141  RH  059%=      5-min Rain = 0
KBY1 151653Z 09015KT 22/14 A301 RMK A01 T02240142  RH  060%=      5-min Rain = 0
KBY1 151654Z 07013G18KT 22/14 A301 RMK A01 T02230141  RH  060%=      5-min Rain = 0
KBY1 151655Z 07012KT 22/14 A301 RMK A01 T02230142  RH  060%=      5-min Rain = 0
KBY1 151656Z 08018KT 22/14 A301 RMK A01 T02230142  RH  060%=      5-min Rain = 0
KBY1 151657Z 07014KT 22/14 A301 RMK A01 T02220142  RH  060%=      5-min Rain = 0
KBY1 151658Z 07011KT 22/14 A301 RMK A01 T02220144  RH  061%=      5-min Rain = 0
KBY1 151659Z 08012KT 23/14 A301 RMK A01 T02250144  RH  060%=      5-min Rain = 0
KBY1 151700Z 07015KT 23/14 A301 RMK A01 T02260144  RH  060%=      5-min Rain = 0
KBY1 151701Z 07012KT 23/14 A301 RMK A01 T02260144  RH  060%=      5-min Rain = 0
KBY1 151702Z 07013KT 23/15 A301 RMK A01 T02280146  RH  060%=      5-min Rain = 0
KBY1 151703Z 06014KT 23/15 A301 RMK A01 T02300145  RH  059%=      5-min Rain = 0
KBY1 151704Z 06013KT 23/14 A301 RMK A01 T02280144  RH  059%=      5-min Rain = 0
KBY1 151705Z 07011KT 23/14 A301 RMK A01 T02260144  RH  060%=      5-min Rain = 0
KBY1 151706Z 07013KT 23/15 A301 RMK A01 T02260145  RH  060%=      5-min Rain = 0
KBY1 151707Z 07014KT 23/14 A301 RMK A01 T02270144  RH  060%=      5-min Rain = 0
KBY1 151708Z 08014KT 23/14 A301 RMK A01 T02290144  RH  059%=      5-min Rain = 0
KBY1 151709Z 08014KT 23/15 A301 RMK A01 T02320145  RH  058%=      5-min Rain = 0
KBY1 151710Z 08013KT 23/15 A301 RMK A01 T02340145  RH  057%=      5-min Rain = 0
KBY1 151711Z 06014KT 23/14 A301 RMK A01 T02330144  RH  057%=      5-min Rain = 0
KBY1 151712Z 08013KT 23/14 A301 RMK A01 T02320144  RH  057%=      5-min Rain = 0
KBY1 151713Z 09013KT 23/14 A301 RMK A01 T02340144  RH  057%=      5-min Rain = 0
KBY1 151714Z 09015G20KT 24/14 A301 RMK A01 T02380144  RH  056%=      5-min Rain = 0
KBY1 151715Z 10016KT 24/14 A301 RMK A01 T02380142  RH  055%=      5-min Rain = 0
KBY1 151716Z 08013G19KT 24/14 A301 RMK A01 T02350141  RH  056%=      5-min Rain = 0
KBY1 151717Z 07015KT 23/14 A301 RMK A01 T02310140  RH  056%=      5-min Rain = 0
KBY1 151718Z 08015G20KT 23/14 A301 RMK A01 T02290140  RH  057%=      5-min Rain = 0
KBY1 151719Z 09013KT 23/14 A301 RMK A01 T02280140  RH  057%=      5-min Rain = 0
KBY1 151720Z 09013KT 23/14 A301 RMK A01 T02280138  RH  057%=      5-min Rain = 0
KBY1 151721Z 09016G22KT 23/14 A301 RMK A01 T02300140  RH  057%=      5-min Rain = 0
KBY1 151722Z 08017KT 23/14 A301 RMK A01 T02340140  RH  056%=      5-min Rain = 0
KBY1 151723Z 07014KT 24/14 A301 RMK A01 T02350141  RH  056%=      5-min Rain = 0
KBY1 151724Z 07014G19KT 24/14 A301 RMK A01 T02390142  RH  055%=      5-min Rain = 0
KBY1 151725Z 08012KT 24/14 A301 RMK A01 T02410143  RH  054%=      5-min Rain = 0
KBY1 151726Z 07012KT 24/14 A301 RMK A01 T02410142  RH  054%=      5-min Rain = 0
KBY1 151727Z 07013KT 24/14 A301 RMK A01 T02410141  RH  054%=      5-min Rain = 0
KBY1 151728Z 06009KT 24/14 A301 RMK A01 T02410141  RH  054%=      5-min Rain = 0
KBY1 151729Z 07011G16KT 24/14 A301 RMK A01 T02400140  RH  054%=      5-min Rain = 0
KBY1 151730Z 07014KT 24/14 A301 RMK A01 T02380140  RH  054%=      5-min Rain = 0
KBY1 151731Z 07016KT 24/14 A301 RMK A01 T02350139  RH  055%=      5-min Rain = 0
KBY1 151732Z 07011KT 23/14 A301 RMK A01 T02320138  RH  055%=      5-min Rain = 0
KBY1 151733Z 08010KT 23/14 A301 RMK A01 T02320139  RH  056%=      5-min Rain = 0
KBY1 151734Z 08013KT 24/14 A301 RMK A01 T02360141  RH  055%=      5-min Rain = 0
KBY1 151735Z 09014KT 24/14 A301 RMK A01 T02370140  RH  055%=      5-min Rain = 0
KBY1 151736Z 09012KT 24/14 A301 RMK A01 T02350138  RH  055%=      5-min Rain = 0
KBY1 151737Z 09013KT 23/14 A301 RMK A01 T02330138  RH  055%=      5-min Rain = 0
KBY1 151738Z 09012KT 23/14 A301 RMK A01 T02320138  RH  056%=      5-min Rain = 0
KBY1 151739Z 08014KT 23/14 A301 RMK A01 T02320138  RH  056%=      5-min Rain = 0
KBY1 151740Z 08011KT 23/14 A301 RMK A01 T02320137  RH  055%=      5-min Rain = 0
KBY1 151741Z 09010KT 23/14 A301 RMK A01 T02310138  RH  056%=      5-min Rain = 0
KBY1 151742Z 08013KT 23/14 A301 RMK A01 T02320139  RH  056%=      5-min Rain = 0
KBY1 151743Z 08013KT 23/14 A301 RMK A01 T02330137  RH  055%=      5-min Rain = 0
KBY1 151744Z 08011G16KT 23/14 A301 RMK A01 T02320138  RH  056%=      5-min Rain = 0
KBY1 151745Z 08011KT 23/14 A301 RMK A01 T02330138  RH  055%=      5-min Rain = 0
KBY1 151746Z 08014KT 23/14 A301 RMK A01 T02340138  RH  055%=      5-min Rain = 0
KBY1 151747Z 07011KT 24/14 A301 RMK A01 T02350137  RH  054%=      5-min Rain = 0
KBY1 151748Z 07010KT 23/14 A301 RMK A01 T02340137  RH  054%=      5-min Rain = 0
KBY1 151749Z 05011KT 23/14 A301 RMK A01 T02340136  RH  054%=      5-min Rain = 0
KBY1 151750Z 06013KT 23/14 A301 RMK A01 T02340135  RH  054%=      5-min Rain = 0
KBY1 151751Z 07013KT 23/14 A301 RMK A01 T02340136  RH  054%=      5-min Rain = 0
KBY1 151752Z 10011KT 24/14 A301 RMK A01 T02360138  RH  054%=      5-min Rain = 0
KBY1 151753Z 09013KT 24/14 A301 RMK A01 T02380138  RH  054%=      5-min Rain = 0
KBY1 151754Z 09010KT 24/14 A301 RMK A01 T02390139  RH  053%=      5-min Rain = 0
KBY1 151755Z 09009KT 24/14 A301 RMK A01 T02410139  RH  053%=      5-min Rain = 0
KBY1 151756Z 10011KT 24/14 A301 RMK A01 T02410139  RH  053%=      5-min Rain = 0
KBY1 151757Z 10010KT 24/14 A301 RMK A01 T02410139  RH  053%=      5-min Rain = 0
KBY1 151758Z 10012KT 24/14 A301 RMK A01 T02420140  RH  053%=      5-min Rain = 0
KBY1 151759Z 07011KT 24/14 A301 RMK A01 T02400140  RH  054%=      5-min Rain = 0
KBY1 151800Z 07013KT 24/14 A301 RMK A01 T02420139  RH  053%=      5-min Rain = 0
KBY1 151801Z 07013KT 24/14 A301 RMK A01 T02410137  RH  052%=      5-min Rain = 0
KBY1 151802Z 07011KT 24/14 A301 RMK A01 T02390137  RH  053%=      5-min Rain = 0
KBY1 151803Z 09012KT 24/14 A301 RMK A01 T02380137  RH  053%=      5-min Rain = 0
KBY1 151804Z 08011KT 24/14 A301 RMK A01 T02380137  RH  053%=      5-min Rain = 0
KBY1 151805Z 07008KT 24/14 A301 RMK A01 T02370136  RH  053%=      5-min Rain = 0
KBY1 151806Z 06011KT 24/14 A301 RMK A01 T02360136  RH  053%=      5-min Rain = 0
KBY1 151807Z 08015KT 24/14 A301 RMK A01 T02360136  RH  054%=      5-min Rain = 0
KBY1 151808Z 07013KT 24/14 A301 RMK A01 T02360135  RH  053%=      5-min Rain = 0
KBY1 151809Z 06010KT 24/14 A301 RMK A01 T02360136  RH  053%=      5-min Rain = 0
KBY1 151810Z 08010KT 24/14 A301 RMK A01 T02350135  RH  053%=      5-min Rain = 0
KBY1 151811Z 11014KT 24/14 A301 RMK A01 T02350136  RH  054%=      5-min Rain = 0
KBY1 151812Z 09015KT 24/13 A301 RMK A01 T02360134  RH  053%=      5-min Rain = 0
KBY1 151813Z 09011KT 24/13 A301 RMK A01 T02350134  RH  053%=      5-min Rain = 0
KBY1 151814Z 08009KT 24/13 A301 RMK A01 T02350134  RH  053%=      5-min Rain = 0
KBY1 151815Z 06010KT 24/13 A301 RMK A01 T02360134  RH  053%=      5-min Rain = 0
KBY1 151816Z 07011KT 24/13 A301 RMK A01 T02360134  RH  053%=      5-min Rain = 0
KBY1 151817Z 09010KT 24/14 A301 RMK A01 T02360136  RH  054%=      5-min Rain = 0
KBY1 151818Z 07011KT 24/14 A301 RMK A01 T02400137  RH  053%=      5-min Rain = 0
KBY1 151819Z 07012KT 24/14 A301 RMK A01 T02410135  RH  051%=      5-min Rain = 0
KBY1 151820Z 07011KT 24/14 A301 RMK A01 T02400136  RH  052%=      5-min Rain = 0
KBY1 151821Z 07011KT 24/14 A301 RMK A01 T02430136  RH  051%=      5-min Rain = 0
KBY1 151822Z 09008KT 25/14 A3009 RMK A01 T02460137  RH  051%=      5-min Rain = 0
KBY1 151823Z 07011KT 25/14 A3009 RMK A01 T02490139  RH  050%=      5-min Rain = 0
KBY1 151824Z 07010KT 25/14 A3009 RMK A01 T02500137  RH  049%=      5-min Rain = 0
KBY1 151825Z 08011KT 25/14 A3009 RMK A01 T02490137  RH  050%=      5-min Rain = 0
KBY1 151826Z 06012KT 25/14 A3009 RMK A01 T02470136  RH  050%=      5-min Rain = 0
KBY1 151827Z 07013KT 24/13 A3009 RMK A01 T02440134  RH  050%=      5-min Rain = 0
KBY1 151828Z 07008KT 24/13 A3009 RMK A01 T02410133  RH  051%=      5-min Rain = 0
KBY1 151829Z 08010KT 24/13 A3009 RMK A01 T02400134  RH  051%=      5-min Rain = 0
KBY1 151830Z 07011KT 24/14 A3009 RMK A01 T02420135  RH  051%=      5-min Rain = 0
KBY1 151831Z 08010KT 25/14 A3009 RMK A01 T02450135  RH  050%=      5-min Rain = 0
KBY1 151832Z 08014KT 25/14 A3009 RMK A01 T02460136  RH  050%=      5-min Rain = 0
KBY1 151833Z 07010KT 25/14 A3009 RMK A01 T02470136  RH  050%=      5-min Rain = 0
KBY1 151834Z 07010KT 25/14 A3009 RMK A01 T02530141  RH  050%=      5-min Rain = 0
KBY1 151835Z 08010KT 26/14 A3009 RMK A01 T02560140  RH  049%=      5-min Rain = 0
KBY1 151836Z 10007KT 26/14 A3009 RMK A01 T02570139  RH  048%=      5-min Rain = 0
KBY1 151837Z 12009G14KT 26/14 A3009 RMK A01 T02550137  RH  048%=      5-min Rain = 0
KBY1 151838Z 08012KT 25/14 A3009 RMK A01 T02510137  RH  049%=      5-min Rain = 0
KBY1 151839Z 09010KT 25/14 A3009 RMK A01 T02530137  RH  049%=      5-min Rain = 0
KBY1 151840Z 10010KT 26/14 A3009 RMK A01 T02560136  RH  047%=      5-min Rain = 0
KBY1 151841Z 09010KT 26/14 A3009 RMK A01 T02560136  RH  047%=      5-min Rain = 0
KBY1 151842Z 09011KT 25/14 A3009 RMK A01 T02540137  RH  048%=      5-min Rain = 0
KBY1 151843Z 09013KT 25/14 A3009 RMK A01 T02540135  RH  048%=      5-min Rain = 0
KBY1 151844Z 10010KT 25/13 A3009 RMK A01 T02490133  RH  048%=      5-min Rain = 0
KBY1 151845Z 11010KT 25/13 A3009 RMK A01 T02480134  RH  049%=      5-min Rain = 0
KBY1 151846Z 12007KT 25/13 A3008 RMK A01 T02490133  RH  048%=      5-min Rain = 0
KBY1 151847Z 11011G16KT 25/14 A3008 RMK A01 T02490135  RH  049%=      5-min Rain = 0
KBY1 151848Z 11012KT 25/14 A3008 RMK A01 T02520136  RH  048%=      5-min Rain = 0
KBY1 151849Z 11009KT 26/14 A3008 RMK A01 T02560137  RH  048%=      5-min Rain = 0
KBY1 151850Z 11008KT 26/14 A3008 RMK A01 T02550135  RH  047%=      5-min Rain = 0
KBY1 151851Z 09009KT 25/14 A3008 RMK A01 T02540137  RH  048%=      5-min Rain = 0
KBY1 151852Z 07010KT 26/13 A3008 RMK A01 T02550134  RH  047%=      5-min Rain = 0
KBY1 151853Z 08009KT 26/14 A3008 RMK A01 T02560135  RH  047%=      5-min Rain = 0
KBY1 151854Z 09007KT 26/13 A3008 RMK A01 T02550134  RH  047%=      5-min Rain = 0
KBY1 151855Z 09007KT 25/13 A3008 RMK A01 T02540134  RH  048%=      5-min Rain = 0
KBY1 151856Z 07011KT 25/14 A3008 RMK A01 T02520136  RH  049%=      5-min Rain = 0
KBY1 151857Z 07011KT 25/14 A3008 RMK A01 T02500136  RH  049%=      5-min Rain = 0
KBY1 151858Z 07011KT 25/13 A3008 RMK A01 T02490134  RH  049%=      5-min Rain = 0
KBY1 151859Z 09011KT 25/14 A3008 RMK A01 T02460135  RH  050%=      5-min Rain = 0
KBY1 151900Z 10009KT 25/13 A3008 RMK A01 T02460134  RH  050%=      5-min Rain = 0
KBY1 151901Z 11009KT 25/13 A3008 RMK A01 T02450132  RH  050%=      5-min Rain = 0
KBY1 151902Z 12009KT 24/13 A3008 RMK A01 T02430132  RH  050%=      5-min Rain = 0
KBY1 151903Z 13010KT 25/13 A3008 RMK A01 T02450132  RH  049%=      5-min Rain = 0
KBY1 151904Z 11010KT 25/14 A3008 RMK A01 T02500135  RH  049%=      5-min Rain = 0
KBY1 151905Z 09011KT 25/14 A3008 RMK A01 T02540135  RH  048%=      5-min Rain = 0
KBY1 151906Z 08008KT 25/13 A3008 RMK A01 T02520134  RH  048%=      5-min Rain = 0
KBY1 151907Z 07008KT 25/14 A3008 RMK A01 T02520136  RH  048%=      5-min Rain = 0
KBY1 151908Z 08011KT 26/13 A3008 RMK A01 T02550133  RH  047%=      5-min Rain = 0
KBY1 151909Z 08012KT 25/13 A3008 RMK A01 T02520133  RH  048%=      5-min Rain = 0
KBY1 151910Z 08010KT 25/13 A3008 RMK A01 T02490133  RH  048%=      5-min Rain = 0
KBY1 151911Z 08009KT 25/13 A3008 RMK A01 T02470133  RH  049%=      5-min Rain = 0
KBY1 151912Z 08008KT 25/13 A3008 RMK A01 T02450132  RH  049%=      5-min Rain = 0
KBY1 151913Z 09008KT 25/13 A3008 RMK A01 T02450134  RH  050%=      5-min Rain = 0
KBY1 151914Z 09009KT 25/13 A3008 RMK A01 T02460134  RH  050%=      5-min Rain = 0
KBY1 151915Z 10010KT 25/13 A3008 RMK A01 T02480134  RH  049%=      5-min Rain = 0
KBY1 151916Z 10011KT 25/13 A3008 RMK A01 T02480133  RH  049%=      5-min Rain = 0
KBY1 151917Z 11011KT 25/13 A3008 RMK A01 T02480130  RH  048%=      5-min Rain = 0
KBY1 151918Z 11010KT 25/13 A3008 RMK A01 T02490130  RH  047%=      5-min Rain = 0
KBY1 151919Z 10008KT 25/13 A3008 RMK A01 T02500132  RH  048%=      5-min Rain = 0
KBY1 151920Z 07009KT 26/14 A3008 RMK A01 T02560138  RH  048%=      5-min Rain = 0
KBY1 151921Z 09010KT 26/14 A3008 RMK A01 T02640137  RH  046%=      5-min Rain = 0
KBY1 151922Z 09007KT 26/13 A3007 RMK A01 T02640132  RH  044%=      5-min Rain = 0
KBY1 151923Z 07007KT 26/13 A3007 RMK A01 T02600133  RH  045%=      5-min Rain = 0
KBY1 151924Z 09005KT 26/13 A3007 RMK A01 T02570133  RH  046%=      5-min Rain = 0
KBY1 151925Z 12008KT 25/13 A3007 RMK A01 T02540132  RH  047%=      5-min Rain = 0
KBY1 151926Z 12011G17KT 25/13 A3007 RMK A01 T02530131  RH  047%=      5-min Rain = 0
KBY1 151927Z 10012G17KT 26/13 A3007 RMK A01 T02550133  RH  047%=      5-min Rain = 0
KBY1 151928Z 12009KT 26/13 A3007 RMK A01 T02600132  RH  045%=      5-min Rain = 0
KBY1 151929Z 12009KT 26/13 A3007 RMK A01 T02620130  RH  044%=      5-min Rain = 0
KBY1 151930Z 08009KT 26/13 A3007 RMK A01 T02630130  RH  044%=      5-min Rain = 0
KBY1 151931Z 08009KT 26/13 A3007 RMK A01 T02640132  RH  044%=      5-min Rain = 0
KBY1 151932Z 08008KT 26/13 A3007 RMK A01 T02640131  RH  044%=      5-min Rain = 0
KBY1 151933Z 11008KT 26/13 A3007 RMK A01 T02630131  RH  044%=      5-min Rain = 0
KBY1 151934Z 11006KT 26/13 A3007 RMK A01 T02630129  RH  044%=      5-min Rain = 0
KBY1 151935Z 11009KT 26/13 A3007 RMK A01 T02640132  RH  044%=      5-min Rain = 0
KBY1 151936Z 11007KT 26/13 A3007 RMK A01 T02630131  RH  044%=      5-min Rain = 0
KBY1 151937Z 11011G20KT 26/13 A3007 RMK A01 T02630134  RH  045%=      5-min Rain = 0
KBY1 151938Z 10013KT 27/13 A3007 RMK A01 T02660133  RH  044%=      5-min Rain = 0
KBY1 151939Z 08012KT 26/13 A3007 RMK A01 T02640133  RH  044%=      5-min Rain = 0
KBY1 151940Z 09010KT 26/14 A3007 RMK A01 T02630136  RH  045%=      5-min Rain = 0
KBY1 151941Z 09012KT 27/13 A3007 RMK A01 T02650134  RH  045%=      5-min Rain = 0
KBY1 151942Z 09013KT 26/13 A3007 RMK A01 T02610131  RH  044%=      5-min Rain = 0
KBY1 151943Z 09013KT 26/13 A3007 RMK A01 T02560129  RH  045%=      5-min Rain = 0
KBY1 151944Z 08010KT 25/13 A3007 RMK A01 T02530130  RH  046%=      5-min Rain = 0
KBY1 151945Z 07011KT 25/13 A3007 RMK A01 T02530130  RH  047%=      5-min Rain = 0
KBY1 151946Z 10009KT 25/13 A3007 RMK A01 T02510130  RH  047%=      5-min Rain = 0
KBY1 151947Z 11010KT 25/13 A3007 RMK A01 T02510130  RH  047%=      5-min Rain = 0
KBY1 151948Z 09008KT 25/13 A3007 RMK A01 T02520129  RH  046%=      5-min Rain = 0
KBY1 151949Z 10006KT 26/13 A3007 RMK A01 T02550129  RH  046%=      5-min Rain = 0
KBY1 151950Z 10007KT 26/13 A3007 RMK A01 T02550129  RH  045%=      5-min Rain = 0
KBY1 151951Z 11007KT 26/13 A3007 RMK A01 T02600132  RH  045%=      5-min Rain = 0
KBY1 151952Z 09005KT 26/13 A3007 RMK A01 T02630130  RH  044%=      5-min Rain = 0
KBY1 151953Z 12006KT 26/13 A3006 RMK A01 T02640129  RH  043%=      5-min Rain = 0
KBY1 151954Z 10004G10KT 27/13 A3006 RMK A01 T02650126  RH  042%=      5-min Rain = 0
KBY1 151955Z 08009KT 27/13 A3006 RMK A01 T02660130  RH  043%=      5-min Rain = 0
KBY1 151956Z 07005KT 27/13 A3006 RMK A01 T02660130  RH  043%=      5-min Rain = 0
KBY1 151957Z 10007KT 27/13 A3006 RMK A01 T02650131  RH  043%=      5-min Rain = 0
KBY1 151958Z 08014KT 27/13 A3006 RMK A01 T02650134  RH  044%=      5-min Rain = 0
KBY1 151959Z 09013KT 26/13 A3006 RMK A01 T02640133  RH  044%=      5-min Rain = 0
KBY1 152000Z 10012KT 26/13 A3006 RMK A01 T02590129  RH  045%=      5-min Rain = 0
KBY1 152001Z 10011KT 26/13 A3006 RMK A01 T02560129  RH  045%=      5-min Rain = 0
KBY1 152002Z 11010KT 26/13 A3006 RMK A01 T02560129  RH  045%=      5-min Rain = 0
KBY1 152003Z 09009KT 26/13 A3006 RMK A01 T02560128  RH  045%=      5-min Rain = 0
KBY1 152004Z 09009KT 25/13 A3006 RMK A01 T02530127  RH  045%=      5-min Rain = 0
KBY1 152005Z 10008KT 26/13 A3006 RMK A01 T02550129  RH  046%=      5-min Rain = 0
KBY1 152006Z 11008KT 26/13 A3006 RMK A01 T02600130  RH  045%=      5-min Rain = 0
KBY1 152007Z 11008KT 26/13 A3006 RMK A01 T02630130  RH  044%=      5-min Rain = 0
KBY1 152008Z 09006KT 26/13 A3006 RMK A01 T02640131  RH  044%=      5-min Rain = 0
KBY1 152009Z 11006KT 27/13 A3005 RMK A01 T02650131  RH  044%=      5-min Rain = 0
KBY1 152010Z 10006KT 27/13 A3005 RMK A01 T02670132  RH  043%=      5-min Rain = 0
KBY1 152011Z 16006KT 27/13 A3005 RMK A01 T02680131  RH  043%=      5-min Rain = 0
KBY1 152012Z 15006KT 27/13 A3005 RMK A01 T02670132  RH  043%=      5-min Rain = 0
KBY1 152013Z 15007KT 27/13 A3005 RMK A01 T02670134  RH  044%=      5-min Rain = 0
KBY1 152014Z 10008KT 27/14 A3005 RMK A01 T02680135  RH  044%=      5-min Rain = 0
KBY1 152015Z 11007KT 27/13 A3005 RMK A01 T02690133  RH  043%=      5-min Rain = 0
KBY1 152016Z 09011KT 27/14 A3005 RMK A01 T02680136  RH  044%=      5-min Rain = 0
KBY1 152017Z 07009KT 27/14 A3005 RMK A01 T02700137  RH  044%=      5-min Rain = 0
KBY1 152018Z 07009KT 27/14 A3005 RMK A01 T02700137  RH  044%=      5-min Rain = 0
KBY1 152019Z 08012KT 27/14 A3005 RMK A01 T02680138  RH  045%=      5-min Rain = 0
KBY1 152020Z 09012KT 27/14 A3005 RMK A01 T02660137  RH  045%=      5-min Rain = 0
KBY1 152021Z 08011KT 26/14 A3005 RMK A01 T02620135  RH  045%=      5-min Rain = 0
KBY1 152022Z 08014KT 26/14 A3005 RMK A01 T02590135  RH  046%=      5-min Rain = 0
KBY1 152023Z 08012KT 26/14 A3005 RMK A01 T02570135  RH  047%=      5-min Rain = 0
KBY1 152024Z 10009KT 26/14 A3005 RMK A01 T02570135  RH  047%=      5-min Rain = 0
KBY1 152025Z 10008G13KT 26/14 A3005 RMK A01 T02570136  RH  047%=      5-min Rain = 0
KBY1 152026Z 08012KT 26/13 A3005 RMK A01 T02590133  RH  046%=      5-min Rain = 0
KBY1 152027Z 07010KT 26/13 A3005 RMK A01 T02570132  RH  046%=      5-min Rain = 0
KBY1 152028Z 08009KT 26/13 A3004 RMK A01 T02550133  RH  047%=      5-min Rain = 0
KBY1 152029Z 07010KT 26/13 A3004 RMK A01 T02570133  RH  046%=      5-min Rain = 0
KBY1 152030Z 07009KT 26/13 A3004 RMK A01 T02600134  RH  046%=      5-min Rain = 0
KBY1 152031Z 12009G16KT 26/14 A3004 RMK A01 T02620135  RH  045%=      5-min Rain = 0
KBY1 152032Z 12010KT 27/14 A3004 RMK A01 T02660136  RH  045%=      5-min Rain = 0
KBY1 152033Z 11010G15KT 27/14 A3004 RMK A01 T02710137  RH  044%=      5-min Rain = 0
KBY1 152034Z 13011KT 28/13 A3004 RMK A01 T02750133  RH  042%=      5-min Rain = 0
KBY1 152035Z 12014KT 28/13 A3004 RMK A01 T02750134  RH  042%=      5-min Rain = 0
KBY1 152036Z 12009KT 28/13 A3004 RMK A01 T02750134  RH  042%=      5-min Rain = 0
KBY1 152037Z 12007KT 27/13 A3004 RMK A01 T02740134  RH  042%=      5-min Rain = 0
KBY1 152038Z 12006KT 27/13 A3004 RMK A01 T02730134  RH  042%=      5-min Rain = 0
KBY1 152039Z 10007KT 27/13 A3004 RMK A01 T02730134  RH  042%=      5-min Rain = 0
KBY1 152040Z 08008KT 28/13 A3004 RMK A01 T02760133  RH  041%=      5-min Rain = 0
KBY1 152041Z 09010KT 28/14 A3004 RMK A01 T02770135  RH  042%=      5-min Rain = 0
KBY1 152042Z 08009KT 28/14 A3004 RMK A01 T02750136  RH  042%=      5-min Rain = 0
KBY1 152043Z 08010KT 27/14 A3004 RMK A01 T02740137  RH  043%=      5-min Rain = 0
KBY1 152044Z 09009KT 28/14 A3004 RMK A01 T02770138  RH  043%=      5-min Rain = 0
KBY1 152045Z 09011KT 28/14 A3004 RMK A01 T02790137  RH  042%=      5-min Rain = 0
KBY1 152046Z 09011KT 28/14 A3004 RMK A01 T02780137  RH  042%=      5-min Rain = 0
KBY1 152047Z 09009KT 28/14 A3004 RMK A01 T02800138  RH  042%=      5-min Rain = 0
KBY1 152048Z 09010KT 28/14 A3004 RMK A01 T02800137  RH  041%=      5-min Rain = 0
KBY1 152049Z 08009KT 28/14 A3004 RMK A01 T02780136  RH  042%=      5-min Rain = 0
KBY1 152050Z 09011KT 28/13 A3004 RMK A01 T02750132  RH  041%=      5-min Rain = 0
KBY1 152051Z 08009KT 27/13 A3004 RMK A01 T02720131  RH  042%=      5-min Rain = 0
KBY1 152052Z 08008KT 27/13 A3004 RMK A01 T02710132  RH  042%=      5-min Rain = 0
KBY1 152053Z 08011KT 27/13 A3004 RMK A01 T02700132  RH  043%=      5-min Rain = 0
KBY1 152054Z 07010KT 27/13 A3004 RMK A01 T02680128  RH  042%=      5-min Rain = 0
KBY1 152055Z 07008KT 26/13 A3004 RMK A01 T02640127  RH  043%=      5-min Rain = 0
KBY1 152056Z 08008KT 26/13 A3003 RMK A01 T02630127  RH  043%=      5-min Rain = 0
KBY1 152057Z 10007KT 26/13 A3003 RMK A01 T02640127  RH  043%=      5-min Rain = 0
KBY1 152058Z 08007KT 27/13 A3003 RMK A01 T02660129  RH  043%=      5-min Rain = 0
KBY1 152059Z 05005KT 27/13 A3003 RMK A01 T02680127  RH  042%=      5-min Rain = 0
KBY1 152100Z 07003KT 27/13 A3003 RMK A01 T02680127  RH  042%=      5-min Rain = 0
KBY1 152101Z 09006KT 27/13 A3003 RMK A01 T02690130  RH  042%=      5-min Rain = 0
KBY1 152102Z 11006KT 27/13 A3003 RMK A01 T02740129  RH  041%=      5-min Rain = 0
KBY1 152103Z 13004KT 28/13 A3003 RMK A01 T02760127  RH  040%=      5-min Rain = 0
KBY1 152104Z 12006KT 28/13 A3003 RMK A01 T02770127  RH  039%=      5-min Rain = 0
KBY1 152105Z 09006KT 28/13 A3003 RMK A01 T02770128  RH  040%=      5-min Rain = 0
KBY1 152106Z 07005KT 28/13 A3003 RMK A01 T02770129  RH  040%=      5-min Rain = 0
KBY1 152107Z 07008KT 28/13 A3002 RMK A01 T02770128  RH  040%=      5-min Rain = 0
KBY1 152108Z 06006KT 28/13 A3002 RMK A01 T02760129  RH  040%=      5-min Rain = 0
KBY1 152109Z 05007KT 28/13 A3002 RMK A01 T02770127  RH  040%=      5-min Rain = 0
KBY1 152110Z 07005KT 28/13 A3002 RMK A01 T02760127  RH  040%=      5-min Rain = 0
KBY1 152111Z 12007KT 28/13 A3002 RMK A01 T02750129  RH  040%=      5-min Rain = 0
KBY1 152112Z 13007KT 28/13 A3002 RMK A01 T02770128  RH  040%=      5-min Rain = 0
KBY1 152113Z 13009KT 28/13 A3002 RMK A01 T02770128  RH  040%=      5-min Rain = 0
KBY1 152114Z 11007KT 28/13 A3002 RMK A01 T02760128  RH  040%=      5-min Rain = 0
KBY1 152115Z 11007KT 27/13 A3002 RMK A01 T02740128  RH  041%=      5-min Rain = 0
KBY1 152116Z 09008KT 27/13 A3002 RMK A01 T02730127  RH  041%=      5-min Rain = 0
KBY1 152117Z 09007KT 27/13 A3002 RMK A01 T02700127  RH  041%=      5-min Rain = 0
KBY1 152118Z 11006G12KT 27/13 A3002 RMK A01 T02690127  RH  041%=      5-min Rain = 0
KBY1 152119Z 11010KT 27/13 A3002 RMK A01 T02690126  RH  041%=      5-min Rain = 0
KBY1 152120Z 11010KT 27/13 A3002 RMK A01 T02690125  RH  041%=      5-min Rain = 0
KBY1 152121Z 12008KT 27/13 A3002 RMK A01 T02690125  RH  041%=      5-min Rain = 0
KBY1 152122Z 12007KT 27/13 A3002 RMK A01 T02730126  RH  040%=      5-min Rain = 0
KBY1 152123Z 13007KT 28/12 A3002 RMK A01 T02760124  RH  039%=      5-min Rain = 0
KBY1 152124Z 14006KT 28/13 A3001 RMK A01 T02770125  RH  039%=      5-min Rain = 0
KBY1 152125Z 10003KT 28/13 A3001 RMK A01 T02790127  RH  039%=      5-min Rain = 0
KBY1 152126Z 09004KT 28/13 A3001 RMK A01 T02830126  RH  038%=      5-min Rain = 0
KBY1 152127Z 08003KT 28/13 A3001 RMK A01 T02840125  RH  037%=      5-min Rain = 0
KBY1 152128Z 08005KT 28/13 A3001 RMK A01 T02840125  RH  037%=      5-min Rain = 0
KBY1 152129Z 07003KT 28/12 A3001 RMK A01 T02840123  RH  037%=      5-min Rain = 0
KBY1 152130Z 07003KT 28/12 A3001 RMK A01 T02840122  RH  037%=      5-min Rain = 0
KBY1 152131Z 09003KT 28/12 A3001 RMK A01 T02830121  RH  037%=      5-min Rain = 0
KBY1 152132Z 18003KT 28/12 A3001 RMK A01 T02830121  RH  037%=      5-min Rain = 0
KBY1 152133Z 07006KT 28/12 A3001 RMK A01 T02840120  RH  036%=      5-min Rain = 0
KBY1 152134Z 09008G13KT 28/12 A3001 RMK A01 T02840123  RH  037%=      5-min Rain = 0
KBY1 152135Z 08004KT 28/12 A3001 RMK A01 T02820124  RH  038%=      5-min Rain = 0
KBY1 152136Z 11003KT 28/12 A3001 RMK A01 T02820123  RH  037%=      5-min Rain = 0
KBY1 152137Z 12006KT 28/12 A3001 RMK A01 T02830121  RH  037%=      5-min Rain = 0
KBY1 152138Z 10005KT 28/12 A3001 RMK A01 T02820120  RH  037%=      5-min Rain = 0
KBY1 152139Z 11002KT 28/12 A3001 RMK A01 T02800119  RH  037%=      5-min Rain = 0
KBY1 152140Z 09007KT 28/12 A3001 RMK A01 T02790121  RH  037%=      5-min Rain = 0
KBY1 152141Z 11005G10KT 28/12 A3001 RMK A01 T02820124  RH  038%=      5-min Rain = 0
KBY1 152142Z 08006KT 29/13 A3001 RMK A01 T02860130  RH  038%=      5-min Rain = 0
KBY1 152143Z 09007KT 29/13 A3001 RMK A01 T02890130  RH  038%=      5-min Rain = 0
KBY1 152144Z 09010KT 29/13 A30 RMK A01 T02880132  RH  038%=      5-min Rain = 0
KBY1 152145Z 13008G13KT 29/13 A30 RMK A01 T02870127  RH  037%=      5-min Rain = 0
KBY1 152146Z 13006KT 29/13 A30 RMK A01 T02890127  RH  037%=      5-min Rain = 0
KBY1 152147Z 14005KT 29/12 A30 RMK A01 T02920124  RH  036%=      5-min Rain = 0
KBY1 152148Z 15007KT 29/12 A30 RMK A01 T02930123  RH  035%=      5-min Rain = 0
KBY1 152149Z 17007KT 29/12 A30 RMK A01 T02920122  RH  035%=      5-min Rain = 0
KBY1 152150Z 16005KT 29/12 A30 RMK A01 T02890120  RH  035%=      5-min Rain = 0
KBY1 152151Z 17006KT 29/12 A30 RMK A01 T02880121  RH  036%=      5-min Rain = 0
KBY1 152152Z 13005KT 29/12 A30 RMK A01 T02890121  RH  035%=      5-min Rain = 0
KBY1 152153Z 15007KT 29/12 A30 RMK A01 T02890124  RH  036%=      5-min Rain = 0
KBY1 152154Z 11007G12KT 29/12 A30 RMK A01 T02890124  RH  036%=      5-min Rain = 0
KBY1 152155Z 11009KT 29/13 A30 RMK A01 T02890128  RH  037%=      5-min Rain = 0
KBY1 152156Z 12009KT 29/13 A30 RMK A01 T02890128  RH  037%=      5-min Rain = 0
KBY1 152157Z 12013KT 29/13 A30 RMK A01 T02890127  RH  037%=      5-min Rain = 0
KBY1 152158Z 12012KT 29/13 A30 RMK A01 T02880125  RH  037%=      5-min Rain = 0
KBY1 152159Z 12011KT 29/12 A30 RMK A01 T02850124  RH  037%=      5-min Rain = 0
KBY1 152200Z 12010KT 28/12 A30 RMK A01 T02810121  RH  037%=      5-min Rain = 0
KBY1 152201Z 11009KT 28/12 A30 RMK A01 T02780121  RH  038%=      5-min Rain = 0
KBY1 152202Z 12006KT 28/12 A2999 RMK A01 T02770121  RH  038%=      5-min Rain = 0
KBY1 152203Z 14003KT 28/12 A2999 RMK A01 T02770119  RH  038%=      5-min Rain = 0
KBY1 152204Z 15003KT 28/12 A2999 RMK A01 T02760120  RH  038%=      5-min Rain = 0
KBY1 152205Z 13003KT 28/12 A2999 RMK A01 T02760120  RH  038%=      5-min Rain = 0
KBY1 152206Z 13008KT 28/12 A2999 RMK A01 T02770122  RH  038%=      5-min Rain = 0
KBY1 152207Z 12005KT 28/12 A2999 RMK A01 T02780120  RH  037%=      5-min Rain = 0
KBY1 152208Z 13007G12KT 28/12 A2999 RMK A01 T02770119  RH  038%=      5-min Rain = 0
KBY1 152209Z 16011KT 28/12 A2999 RMK A01 T02760122  RH  038%=      5-min Rain = 0
KBY1 152210Z 16011KT 28/12 A2999 RMK A01 T02770122  RH  038%=      5-min Rain = 0
KBY1 152211Z 16007KT 28/12 A2999 RMK A01 T02770121  RH  038%=      5-min Rain = 0
KBY1 152212Z 14004KT 28/12 A2999 RMK A01 T02780120  RH  038%=      5-min Rain = 0
KBY1 152213Z 13001KT 28/12 A2999 RMK A01 T02780120  RH  037%=      5-min Rain = 0
KBY1 152214Z 15001KT 28/12 A2999 RMK A01 T02800120  RH  037%=      5-min Rain = 0
KBY1 152215Z 15007KT 28/12 A2999 RMK A01 T02810122  RH  037%=      5-min Rain = 0
KBY1 152216Z 14005KT 28/12 A2999 RMK A01 T02830120  RH  037%=      5-min Rain = 0
KBY1 152217Z 16003KT 28/12 A2999 RMK A01 T02820121  RH  037%=      5-min Rain = 0
KBY1 152218Z 16005KT 28/12 A2999 RMK A01 T02820122  RH  037%=      5-min Rain = 0
KBY1 152219Z 14005KT 28/12 A2999 RMK A01 T02820122  RH  037%=      5-min Rain = 0
KBY1 152220Z 11006KT 28/12 A2999 RMK A01 T02820121  RH  037%=      5-min Rain = 0
KBY1 152221Z 11009KT 28/13 A2999 RMK A01 T02810125  RH  038%=      5-min Rain = 0
KBY1 152222Z 12007KT 28/13 A2999 RMK A01 T02780126  RH  039%=      5-min Rain = 0
KBY1 152223Z 13006KT 28/13 A2999 RMK A01 T02780126  RH  039%=      5-min Rain = 0
KBY1 152224Z 11008G13KT 28/13 A2999 RMK A01 T02770127  RH  039%=      5-min Rain = 0
KBY1 152225Z 09012KT 28/13 A2999 RMK A01 T02770127  RH  039%=      5-min Rain = 0
KBY1 152226Z 09010KT 28/12 A2999 RMK A01 T02770124  RH  039%=      5-min Rain = 0
KBY1 152227Z 09010KT 28/12 A2999 RMK A01 T02750124  RH  039%=      5-min Rain = 0
KBY1 152228Z 09011KT 27/12 A2999 RMK A01 T02740124  RH  040%=      5-min Rain = 0
KBY1 152229Z 08011KT 27/12 A2998 RMK A01 T02730121  RH  039%=      5-min Rain = 0
KBY1 152230Z 09009KT 27/12 A2998 RMK A01 T02720123  RH  039%=      5-min Rain = 0
KBY1 152231Z 08008KT 27/12 A2998 RMK A01 T02720121  RH  039%=      5-min Rain = 0
KBY1 152232Z 09007KT 27/12 A2998 RMK A01 T02730122  RH  039%=      5-min Rain = 0
KBY1 152233Z 09006KT 27/12 A2998 RMK A01 T02720123  RH  040%=      5-min Rain = 0
KBY1 152234Z 10007KT 27/12 A2998 RMK A01 T02720124  RH  040%=      5-min Rain = 0
KBY1 152235Z 09006KT 27/12 A2998 RMK A01 T02720123  RH  040%=      5-min Rain = 0
KBY1 152236Z 08005KT 27/12 A2998 RMK A01 T02720123  RH  040%=      5-min Rain = 0
KBY1 152237Z 07005KT 27/12 A2998 RMK A01 T02720123  RH  040%=      5-min Rain = 0
KBY1 152238Z 06005KT 27/12 A2998 RMK A01 T02710124  RH  040%=      5-min Rain = 0
KBY1 152239Z 06005KT 27/12 A2998 RMK A01 T02730123  RH  039%=      5-min Rain = 0
KBY1 152240Z 07004KT 27/12 A2998 RMK A01 T02740124  RH  039%=      5-min Rain = 0
KBY1 152241Z 11005KT 27/12 A2998 RMK A01 T02740124  RH  039%=      5-min Rain = 0
KBY1 152242Z 10006KT 27/12 A2998 RMK A01 T02740121  RH  039%=      5-min Rain = 0
KBY1 152243Z 09007KT 27/12 A2998 RMK A01 T02740122  RH  039%=      5-min Rain = 0
KBY1 152244Z 09008KT 28/12 A2998 RMK A01 T02750122  RH  039%=      5-min Rain = 0
KBY1 152245Z 10006KT 28/12 A2998 RMK A01 T02750123  RH  039%=      5-min Rain = 0
KBY1 152246Z 11008KT 28/12 A2998 RMK A01 T02750123  RH  039%=      5-min Rain = 0
KBY1 152247Z 11008KT 28/12 A2998 RMK A01 T02750124  RH  039%=      5-min Rain = 0
KBY1 152248Z 11007KT 28/12 A2998 RMK A01 T02750124  RH  039%=      5-min Rain = 0
KBY1 152249Z 12008KT 28/12 A2998 RMK A01 T02750124  RH  039%=      5-min Rain = 0
KBY1 152250Z 11007KT 28/12 A2998 RMK A01 T02750123  RH  039%=      5-min Rain = 0
KBY1 152251Z 11008KT 28/13 A2998 RMK A01 T02750125  RH  039%=      5-min Rain = 0
KBY1 152252Z 12007KT 28/13 A2998 RMK A01 T02750125  RH  040%=      5-min Rain = 0
KBY1 152253Z 12005KT 28/13 A2998 RMK A01 T02750127  RH  040%=      5-min Rain = 0
KBY1 152254Z 13006KT 28/13 A2998 RMK A01 T02760126  RH  040%=      5-min Rain = 0
KBY1 152255Z 13007KT 28/13 A2998 RMK A01 T02760125  RH  039%=      5-min Rain = 0
KBY1 152256Z 12007KT 28/13 A2998 RMK A01 T02750125  RH  039%=      5-min Rain = 0
KBY1 152257Z 12006KT 27/12 A2998 RMK A01 T02740124  RH  039%=      5-min Rain = 0
KBY1 152258Z 13007KT 27/13 A2998 RMK A01 T02730125  RH  040%=      5-min Rain = 0
KBY1 152259Z 13007KT 27/12 A2998 RMK A01 T02720123  RH  040%=      5-min Rain = 0
KBY1 152300Z 14005KT 27/12 A2998 RMK A01 T02720123  RH  040%=      5-min Rain = 0
KBY1 152301Z 14007KT 27/12 A2998 RMK A01 T02720123  RH  040%=      5-min Rain = 0
KBY1 152302Z 13006KT 27/12 A2998 RMK A01 T02720123  RH  040%=      5-min Rain = 0
KBY1 152303Z 13005KT 27/12 A2998 RMK A01 T02720123  RH  040%=      5-min Rain = 0
KBY1 152304Z 13006KT 27/12 A2998 RMK A01 T02720123  RH  040%=      5-min Rain = 0
KBY1 152305Z 12006KT 27/12 A2999 RMK A01 T02720123  RH  040%=      5-min Rain = 0
KBY1 152306Z 12004KT 27/12 A2999 RMK A01 T02710123  RH  040%=      5-min Rain = 0
KBY1 152307Z 14005KT 27/12 A2999 RMK A01 T02710123  RH  040%=      5-min Rain = 0
KBY1 152308Z 13004KT 27/12 A2999 RMK A01 T02710124  RH  040%=      5-min Rain = 0
KBY1 152309Z 11004KT 27/12 A2999 RMK A01 T02710124  RH  040%=      5-min Rain = 0
KBY1 152310Z 10004KT 27/12 A2999 RMK A01 T02710124  RH  040%=      5-min Rain = 0
KBY1 152311Z 11002KT 27/13 A2999 RMK A01 T02710125  RH  040%=      5-min Rain = 0
KBY1 152312Z 09000KT 27/13 A2999 RMK A01 T02710125  RH  040%=      5-min Rain = 0
KBY1 152313Z 10001KT 27/13 A2999 RMK A01 T02710125  RH  040%=      5-min Rain = 0
KBY1 152314Z 09001KT 27/13 A2999 RMK A01 T02710125  RH  041%=      5-min Rain = 0
KBY1 152315Z 00000KT 27/12 A2999 RMK A01 T02710124  RH  040%=      5-min Rain = 0
KBY1 152316Z 10001KT 27/13 A2999 RMK A01 T02710125  RH  040%=      5-min Rain = 0
KBY1 152317Z 09005KT 27/13 A2999 RMK A01 T02710126  RH  041%=      5-min Rain = 0
KBY1 152318Z 09006KT 27/13 A2999 RMK A01 T02710127  RH  041%=      5-min Rain = 0
KBY1 152319Z 07006KT 27/13 A2999 RMK A01 T02710126  RH  041%=      5-min Rain = 0
KBY1 152320Z 08004KT 27/13 A2999 RMK A01 T02700126  RH  041%=      5-min Rain = 0
KBY1 152321Z 07003KT 27/12 A2999 RMK A01 T02690124  RH  041%=      5-min Rain = 0
KBY1 152322Z 05003KT 27/12 A2999 RMK A01 T02690124  RH  041%=      5-min Rain = 0
KBY1 152323Z 06004KT 27/12 A2999 RMK A01 T02680124  RH  041%=      5-min Rain = 0
KBY1 152324Z 06003KT 27/12 A2998 RMK A01 T02690124  RH  041%=      5-min Rain = 0
KBY1 152325Z 08003KT 27/13 A2998 RMK A01 T02690126  RH  041%=      5-min Rain = 0
KBY1 152326Z 10003KT 27/13 A2998 RMK A01 T02690125  RH  041%=      5-min Rain = 0
KBY1 152327Z 10003KT 27/13 A2998 RMK A01 T02690125  RH  041%=      5-min Rain = 0
KBY1 152328Z 08003KT 27/13 A2998 RMK A01 T02690126  RH  041%=      5-min Rain = 0
KBY1 152329Z 09005KT 27/13 A2998 RMK A01 T02690126  RH  041%=      5-min Rain = 0
KBY1 152330Z 08004KT 27/13 A2998 RMK A01 T02690126  RH  041%=      5-min Rain = 0
KBY1 152331Z 08005KT 27/13 A2998 RMK A01 T02680126  RH  041%=      5-min Rain = 0
KBY1 152332Z 07003KT 27/13 A2998 RMK A01 T02680127  RH  042%=      5-min Rain = 0
KBY1 152333Z 06003KT 27/13 A2998 RMK A01 T02680127  RH  042%=      5-min Rain = 0
KBY1 152334Z 06003KT 27/13 A2998 RMK A01 T02680126  RH  041%=      5-min Rain = 0
KBY1 152335Z 06002KT 27/13 A2998 RMK A01 T02680126  RH  041%=      5-min Rain = 0
KBY1 152336Z 07002KT 27/13 A2998 RMK A01 T02680126  RH  041%=      5-min Rain = 0
KBY1 152337Z 09002KT 27/13 A2998 RMK A01 T02680126  RH  041%=      5-min Rain = 0
KBY1 152338Z 08001KT 27/13 A2997 RMK A01 T02680127  RH  042%=      5-min Rain = 0
KBY1 152339Z 08001KT 27/13 A2997 RMK A01 T02680125  RH  041%=      5-min Rain = 0
KBY1 152340Z 10003KT 27/13 A2997 RMK A01 T02690126  RH  041%=      5-min Rain = 0
KBY1 152341Z 11005KT 27/13 A2997 RMK A01 T02680127  RH  041%=      5-min Rain = 0
KBY1 152342Z 10005KT 27/13 A2997 RMK A01 T02680126  RH  041%=      5-min Rain = 0
KBY1 152343Z 10006KT 27/13 A2997 RMK A01 T02670126  RH  042%=      5-min Rain = 0
KBY1 152344Z 11008KT 27/13 A2997 RMK A01 T02670126  RH  042%=      5-min Rain = 0
KBY1 152345Z 12007KT 27/13 A2997 RMK A01 T02670126  RH  042%=      5-min Rain = 0
KBY1 152346Z 12006KT 27/13 A2997 RMK A01 T02660125  RH  042%=      5-min Rain = 0
KBY1 152347Z 11005KT 27/13 A2997 RMK A01 T02660126  RH  042%=      5-min Rain = 0
KBY1 152348Z 11005KT 27/13 A2996 RMK A01 T02660126  RH  042%=      5-min Rain = 0
KBY1 152349Z 11005KT 27/13 A2996 RMK A01 T02660126  RH  042%=      5-min Rain = 0
KBY1 152350Z 11005KT 27/13 A2996 RMK A01 T02660127  RH  042%=      5-min Rain = 0
KBY1 152351Z 12006KT 27/13 A2996 RMK A01 T02660127  RH  042%=      5-min Rain = 0
KBY1 152352Z 11006KT 27/13 A2996 RMK A01 T02650126  RH  042%=      5-min Rain = 0
KBY1 152353Z 11005KT 27/13 A2996 RMK A01 T02650126  RH  042%=      5-min Rain = 0
KBY1 152354Z 11005KT 27/13 A2996 RMK A01 T02650127  RH  042%=      5-min Rain = 0
KBY1 152355Z 11004KT 27/13 A2996 RMK A01 T02650126  RH  042%=      5-min Rain = 0
KBY1 152356Z 10004KT 27/13 A2996 RMK A01 T02650127  RH  042%=      5-min Rain = 0
KBY1 152357Z 09004KT 27/13 A2996 RMK A01 T02650127  RH  043%=      5-min Rain = 0
KBY1 152358Z 10003KT 26/13 A2997 RMK A01 T02640127  RH  043%=      5-min Rain = 0
KBY1 152359Z 10004KT 26/13 A2997 RMK A01 T02640127  RH  043%=      5-min Rain = 0
KBY1 160000Z 09003KT 26/13 A2997 RMK A01 T02630126  RH  043%=      5-min Rain = 0
KBY1 160001Z 09003KT 26/13 A2997 RMK A01 T02630127  RH  043%=      5-min Rain = 0
KBY1 160002Z 09003KT 26/13 A2997 RMK A01 T02630128  RH  043%=      5-min Rain = 0
KBY1 160003Z 09004KT 26/13 A2996 RMK A01 T02620126  RH  043%=      5-min Rain = 0
KBY1 160004Z 10004KT 26/13 A2996 RMK A01 T02620127  RH  043%=      5-min Rain = 0
KBY1 160005Z 09004KT 26/13 A2996 RMK A01 T02620127  RH  043%=      5-min Rain = 0
KBY1 160006Z 10004KT 26/13 A2996 RMK A01 T02620128  RH  043%=      5-min Rain = 0
KBY1 160007Z 10004KT 26/13 A2997 RMK A01 T02610127  RH  043%=      5-min Rain = 0
KBY1 160008Z 11004KT 26/13 A2997 RMK A01 T02610127  RH  043%=      5-min Rain = 0
KBY1 160009Z 12004KT 26/13 A2997 RMK A01 T02610127  RH  043%=      5-min Rain = 0
KBY1 160010Z 11006KT 26/13 A2997 RMK A01 T02610128  RH  044%=      5-min Rain = 0
KBY1 160011Z 12006KT 26/13 A2997 RMK A01 T02610128  RH  044%=      5-min Rain = 0
KBY1 160012Z 12007KT 26/13 A2997 RMK A01 T02600129  RH  044%=      5-min Rain = 0
KBY1 160013Z 13006KT 26/13 A2998 RMK A01 T02600129  RH  044%=      5-min Rain = 0
KBY1 160014Z 13008KT 26/13 A2998 RMK A01 T02600129  RH  044%=      5-min Rain = 0
KBY1 160015Z 13008KT 26/13 A2997 RMK A01 T02600129  RH  044%=      5-min Rain = 0
KBY1 160016Z 12006KT 26/13 A2997 RMK A01 T02600130  RH  044%=      5-min Rain = 0
KBY1 160017Z 12007KT 26/13 A2997 RMK A01 T02590130  RH  045%=      5-min Rain = 0
KBY1 160018Z 12007KT 26/13 A2997 RMK A01 T02590130  RH  045%=      5-min Rain = 0
KBY1 160019Z 11005KT 26/13 A2997 RMK A01 T02580129  RH  045%=      5-min Rain = 0
KBY1 160020Z 12005KT 26/13 A2997 RMK A01 T02580130  RH  045%=      5-min Rain = 0
KBY1 160021Z 13006KT 26/13 A2998 RMK A01 T02580130  RH  045%=      5-min Rain = 0
KBY1 160022Z 13005KT 26/13 A2998 RMK A01 T02570130  RH  045%=      5-min Rain = 0
KBY1 160023Z 14005KT 26/13 A2998 RMK A01 T02570131  RH  045%=      5-min Rain = 0
KBY1 160024Z 14004KT 26/13 A2998 RMK A01 T02570131  RH  046%=      5-min Rain = 0
KBY1 160025Z 14004KT 26/13 A2998 RMK A01 T02570131  RH  046%=      5-min Rain = 0
KBY1 160026Z 14005KT 26/13 A2998 RMK A01 T02570131  RH  046%=      5-min Rain = 0
KBY1 160027Z 14005KT 26/13 A2998 RMK A01 T02570130  RH  046%=      5-min Rain = 0
KBY1 160028Z 14004KT 26/13 A2998 RMK A01 T02560130  RH  045%=      5-min Rain = 0
KBY1 160029Z 14004KT 26/13 A2998 RMK A01 T02570130  RH  045%=      5-min Rain = 0
KBY1 160030Z 14004KT 26/13 A2998 RMK A01 T02570130  RH  046%=      5-min Rain = 0
KBY1 160031Z 14004KT 26/13 A2998 RMK A01 T02560130  RH  045%=      5-min Rain = 0
KBY1 160032Z 14004KT 26/13 A2998 RMK A01 T02560130  RH  045%=      5-min Rain = 0
KBY1 160033Z 14006KT 26/13 A2998 RMK A01 T02560130  RH  045%=      5-min Rain = 0
KBY1 160034Z 14005KT 26/13 A2997 RMK A01 T02560129  RH  045%=      5-min Rain = 0
KBY1 160035Z 14005KT 26/13 A2997 RMK A01 T02560129  RH  045%=      5-min Rain = 0
KBY1 160036Z 14006KT 26/13 A2997 RMK A01 T02560129  RH  045%=      5-min Rain = 0
KBY1 160037Z 15006KT 26/13 A2997 RMK A01 T02560129  RH  045%=      5-min Rain = 0
KBY1 160038Z 15006KT 26/13 A2998 RMK A01 T02560129  RH  045%=      5-min Rain = 0
KBY1 160039Z 16006KT 26/13 A2998 RMK A01 T02550128  RH  045%=      5-min Rain = 0
KBY1 160040Z 16006KT 26/13 A2998 RMK A01 T02560128  RH  045%=      5-min Rain = 0
KBY1 160041Z 15006KT 26/13 A2998 RMK A01 T02560127  RH  045%=      5-min Rain = 0
KBY1 160042Z 16006KT 26/13 A2998 RMK A01 T02560128  RH  045%=      5-min Rain = 0
KBY1 160043Z 15006KT 26/13 A2998 RMK A01 T02560128  RH  045%=      5-min Rain = 0
KBY1 160044Z 15006KT 26/13 A2998 RMK A01 T02560128  RH  045%=      5-min Rain = 0
KBY1 160045Z 15006KT 26/13 A2998 RMK A01 T02560128  RH  045%=      5-min Rain = 0
KBY1 160046Z 15006KT 26/13 A2998 RMK A01 T02560128  RH  045%=      5-min Rain = 0
KBY1 160047Z 15007KT 26/13 A2997 RMK A01 T02560128  RH  045%=      5-min Rain = 0
KBY1 160048Z 15006KT 26/13 A2997 RMK A01 T02550128  RH  045%=      5-min Rain = 0
KBY1 160049Z 15006KT 26/13 A2997 RMK A01 T02550128  RH  045%=      5-min Rain = 0
KBY1 160050Z 15006KT 26/13 A2997 RMK A01 T02550128  RH  045%=      5-min Rain = 0
KBY1 160051Z 15006KT 26/13 A2997 RMK A01 T02550128  RH  045%=      5-min Rain = 0
KBY1 160052Z 14006KT 26/13 A2997 RMK A01 T02550129  RH  045%=      5-min Rain = 0
KBY1 160053Z 14006KT 26/13 A2997 RMK A01 T02550129  RH  046%=      5-min Rain = 0
KBY1 160054Z 14007KT 26/13 A2997 RMK A01 T02550129  RH  046%=      5-min Rain = 0
KBY1 160055Z 14009KT 26/13 A2997 RMK A01 T02550128  RH  045%=      5-min Rain = 0
KBY1 160056Z 13007KT 26/13 A2996 RMK A01 T02550128  RH  045%=      5-min Rain = 0
KBY1 160057Z 12005KT 26/13 A2996 RMK A01 T02550128  RH  045%=      5-min Rain = 0
KBY1 160058Z 13007KT 26/13 A2996 RMK A01 T02560128  RH  045%=      5-min Rain = 0
KBY1 160059Z 13006KT 26/13 A2996 RMK A01 T02560128  RH  045%=      5-min Rain = 0
KBY1 160100Z 13006KT 26/13 A2996 RMK A01 T02570129  RH  045%=      5-min Rain = 0
KBY1 160101Z 12008KT 26/13 A2996 RMK A01 T02570129  RH  045%=      5-min Rain = 0
KBY1 160102Z 12006KT 26/13 A2995 RMK A01 T02580128  RH  045%=      5-min Rain = 0
KBY1 160103Z 13006KT 26/13 A2995 RMK A01 T02580128  RH  045%=      5-min Rain = 0
KBY1 160104Z 11007KT 26/13 A2995 RMK A01 T02580128  RH  044%=      5-min Rain = 0
KBY1 160105Z 11007KT 26/13 A2995 RMK A01 T02590128  RH  044%=      5-min Rain = 0
KBY1 160106Z 12007KT 26/13 A2995 RMK A01 T02590129  RH  044%=      5-min Rain = 0
KBY1 160107Z 12008KT 26/13 A2995 RMK A01 T02590129  RH  044%=      5-min Rain = 0
KBY1 160108Z 12008KT 26/13 A2995 RMK A01 T02590129  RH  045%=      5-min Rain = 0
KBY1 160109Z 12007KT 26/13 A2995 RMK A01 T02590129  RH  045%=      5-min Rain = 0
KBY1 160110Z 12007KT 26/13 A2995 RMK A01 T02590130  RH  045%=      5-min Rain = 0
KBY1 160111Z 11008KT 26/13 A2995 RMK A01 T02580129  RH  045%=      5-min Rain = 0
KBY1 160112Z 11008KT 26/13 A2995 RMK A01 T02580129  RH  045%=      5-min Rain = 0
KBY1 160113Z 12010KT 26/13 A2995 RMK A01 T02580129  RH  045%=      5-min Rain = 0
KBY1 160114Z 12007KT 26/13 A2995 RMK A01 T02580129  RH  045%=      5-min Rain = 0
KBY1 160115Z 11008KT 26/13 A2995 RMK A01 T02580129  RH  045%=      5-min Rain = 0
KBY1 160116Z 12008KT 26/13 A2995 RMK A01 T02580129  RH  045%=      5-min Rain = 0
KBY1 160117Z 11007KT 26/13 A2995 RMK A01 T02580129  RH  045%=      5-min Rain = 0
KBY1 160118Z 11007KT 26/13 A2995 RMK A01 T02570129  RH  045%=      5-min Rain = 0
KBY1 160119Z 12007KT 26/13 A2995 RMK A01 T02570129  RH  045%=      5-min Rain = 0
KBY1 160120Z 11008KT 26/13 A2996 RMK A01 T02570130  RH  045%=      5-min Rain = 0
KBY1 160121Z 11007KT 26/13 A2996 RMK A01 T02560130  RH  045%=      5-min Rain = 0
KBY1 160122Z 11009KT 26/13 A2996 RMK A01 T02560130  RH  046%=      5-min Rain = 0
KBY1 160123Z 11007KT 26/13 A2996 RMK A01 T02560130  RH  046%=      5-min Rain = 0
KBY1 160124Z 11007KT 26/13 A2996 RMK A01 T02560130  RH  046%=      5-min Rain = 0
KBY1 160125Z 11009KT 26/13 A2996 RMK A01 T02550130  RH  046%=      5-min Rain = 0
KBY1 160126Z 11009KT 26/13 A2996 RMK A01 T02550130  RH  046%=      5-min Rain = 0
KBY1 160127Z 10009KT 26/13 A2996 RMK A01 T02550130  RH  046%=      5-min Rain = 0
KBY1 160128Z 10007KT 26/13 A2996 RMK A01 T02550130  RH  046%=      5-min Rain = 0
KBY1 160129Z 09007KT 26/13 A2996 RMK A01 T02550131  RH  046%=      5-min Rain = 0
KBY1 160130Z 09007KT 25/13 A2996 RMK A01 T02540130  RH  046%=      5-min Rain = 0
KBY1 160131Z 09006KT 25/13 A2996 RMK A01 T02540131  RH  046%=      5-min Rain = 0
KBY1 160132Z 09007KT 25/13 A2996 RMK A01 T02530130  RH  046%=      5-min Rain = 0
KBY1 160133Z 09007KT 25/13 A2996 RMK A01 T02540131  RH  046%=      5-min Rain = 0
KBY1 160134Z 09007KT 25/13 A2996 RMK A01 T02530131  RH  047%=      5-min Rain = 0
KBY1 160135Z 09008KT 25/13 A2996 RMK A01 T02530130  RH  047%=      5-min Rain = 0
KBY1 160136Z 09008KT 25/13 A2996 RMK A01 T02530130  RH  047%=      5-min Rain = 0
KBY1 160137Z 08007KT 25/13 A2996 RMK A01 T02520130  RH  046%=      5-min Rain = 0
KBY1 160138Z 10007KT 25/13 A2996 RMK A01 T02530130  RH  047%=      5-min Rain = 0
KBY1 160139Z 09007KT 25/13 A2996 RMK A01 T02520130  RH  047%=      5-min Rain = 0
KBY1 160140Z 09006KT 25/13 A2996 RMK A01 T02520130  RH  047%=      5-min Rain = 0
KBY1 160141Z 09005KT 25/13 A2996 RMK A01 T02520130  RH  047%=      5-min Rain = 0
KBY1 160142Z 09006KT 25/13 A2996 RMK A01 T02510130  RH  047%=      5-min Rain = 0
KBY1 160143Z 08007KT 25/13 A2996 RMK A01 T02510130  RH  047%=      5-min Rain = 0
KBY1 160144Z 09007KT 25/13 A2996 RMK A01 T02510129  RH  047%=      5-min Rain = 0
KBY1 160145Z 09007KT 25/13 A2996 RMK A01 T02510129  RH  047%=      5-min Rain = 0
KBY1 160146Z 08007KT 25/13 A2996 RMK A01 T02500129  RH  047%=      5-min Rain = 0
KBY1 160147Z 09007KT 25/13 A2996 RMK A01 T02500129  RH  047%=      5-min Rain = 0
KBY1 160148Z 09006KT 25/13 A2996 RMK A01 T02490129  RH  047%=      5-min Rain = 0
KBY1 160149Z 09006KT 25/13 A2996 RMK A01 T02490129  RH  047%=      5-min Rain = 0
KBY1 160150Z 09006KT 25/13 A2996 RMK A01 T02480129  RH  048%=      5-min Rain = 0
KBY1 160151Z 09006KT 25/13 A2996 RMK A01 T02470129  RH  048%=      5-min Rain = 0
KBY1 160152Z 09006KT 25/13 A2996 RMK A01 T02470130  RH  048%=      5-min Rain = 0
KBY1 160153Z 09007KT 25/13 A2996 RMK A01 T02470129  RH  048%=      5-min Rain = 0
KBY1 160154Z 09006KT 25/13 A2996 RMK A01 T02460129  RH  048%=      5-min Rain = 0
KBY1 160155Z 08006KT 25/13 A2996 RMK A01 T02460129  RH  048%=      5-min Rain = 0
KBY1 160156Z 08006KT 25/13 A2996 RMK A01 T02450129  RH  048%=      5-min Rain = 0
KBY1 160157Z 09006KT 25/13 A2996 RMK A01 T02450129  RH  049%=      5-min Rain = 0
KBY1 160158Z 08006KT 24/13 A2996 RMK A01 T02440129  RH  049%=      5-min Rain = 0
KBY1 160159Z 08007KT 24/13 A2996 RMK A01 T02440129  RH  049%=      5-min Rain = 0
KBY1 160200Z 08006KT 24/13 A2996 RMK A01 T02430129  RH  049%=      5-min Rain = 0
KBY1 160201Z 08007KT 24/13 A2996 RMK A01 T02430129  RH  049%=      5-min Rain = 0
KBY1 160202Z 08006KT 24/13 A2996 RMK A01 T02420129  RH  049%=      5-min Rain = 0
KBY1 160203Z 08006KT 24/13 A2996 RMK A01 T02420128  RH  049%=      5-min Rain = 0
KBY1 160204Z 08006KT 24/13 A2996 RMK A01 T02420128  RH  049%=      5-min Rain = 0
KBY1 160205Z 08006KT 24/13 A2996 RMK A01 T02420129  RH  049%=      5-min Rain = 0
KBY1 160206Z 08006KT 24/13 A2996 RMK A01 T02410128  RH  049%=      5-min Rain = 0
KBY1 160207Z 08005KT 24/13 A2996 RMK A01 T02400127  RH  049%=      5-min Rain = 0
KBY1 160208Z 08006KT 24/13 A2996 RMK A01 T02390127  RH  050%=      5-min Rain = 0
KBY1 160209Z 09006KT 24/13 A2996 RMK A01 T02380127  RH  050%=      5-min Rain = 0
KBY1 160210Z 09007KT 24/13 A2996 RMK A01 T02380127  RH  050%=      5-min Rain = 0
KBY1 160211Z 09006KT 24/13 A2996 RMK A01 T02370127  RH  050%=      5-min Rain = 0
KBY1 160212Z 09007KT 24/13 A2995 RMK A01 T02370127  RH  050%=      5-min Rain = 0
KBY1 160213Z 10007KT 24/13 A2995 RMK A01 T02370127  RH  050%=      5-min Rain = 0
KBY1 160214Z 10006KT 24/13 A2995 RMK A01 T02370127  RH  050%=      5-min Rain = 0
KBY1 160215Z 10006KT 24/13 A2995 RMK A01 T02370127  RH  050%=      5-min Rain = 0
KBY1 160216Z 10007KT 24/13 A2995 RMK A01 T02360127  RH  050%=      5-min Rain = 0
KBY1 160217Z 10006KT 24/13 A2995 RMK A01 T02350127  RH  051%=      5-min Rain = 0
KBY1 160218Z 10006KT 24/13 A2995 RMK A01 T02350128  RH  051%=      5-min Rain = 0
KBY1 160219Z 10006KT 24/13 A2995 RMK A01 T02350127  RH  051%=      5-min Rain = 0
KBY1 160220Z 10005KT 23/13 A2995 RMK A01 T02340127  RH  051%=      5-min Rain = 0
KBY1 160221Z 10004KT 23/13 A2995 RMK A01 T02330127  RH  051%=      5-min Rain = 0
KBY1 160222Z 10004KT 23/13 A2995 RMK A01 T02330128  RH  052%=      5-min Rain = 0
KBY1 160223Z 10004KT 23/13 A2995 RMK A01 T02320127  RH  052%=      5-min Rain = 0
KBY1 160224Z 11004KT 23/13 A2995 RMK A01 T02310127  RH  052%=      5-min Rain = 0
KBY1 160225Z 10003KT 23/13 A2995 RMK A01 T02310127  RH  052%=      5-min Rain = 0
KBY1 160226Z 09003KT 23/13 A2995 RMK A01 T02300127  RH  052%=      5-min Rain = 0
KBY1 160227Z 09004KT 23/13 A2995 RMK A01 T02300127  RH  052%=      5-min Rain = 0
KBY1 160228Z 09004KT 23/13 A2995 RMK A01 T02290127  RH  052%=      5-min Rain = 0
KBY1 160229Z 08004KT 23/13 A2995 RMK A01 T02270127  RH  053%=      5-min Rain = 0
KBY1 160230Z 07004KT 23/13 A2995 RMK A01 T02250126  RH  053%=      5-min Rain = 0
KBY1 160231Z 07004KT 22/13 A2995 RMK A01 T02240126  RH  054%=      5-min Rain = 0
KBY1 160232Z 08005KT 22/13 A2995 RMK A01 T02230126  RH  054%=      5-min Rain = 0
KBY1 160233Z 07005KT 22/13 A2995 RMK A01 T02230126  RH  054%=      5-min Rain = 0
KBY1 160234Z 07005KT 22/13 A2995 RMK A01 T02230126  RH  054%=      5-min Rain = 0
KBY1 160235Z 07005KT 22/13 A2995 RMK A01 T02230126  RH  054%=      5-min Rain = 0
KBY1 160236Z 07005KT 22/13 A2995 RMK A01 T02230126  RH  054%=      5-min Rain = 0
KBY1 160237Z 07004KT 22/13 A2995 RMK A01 T02240127  RH  054%=      5-min Rain = 0
KBY1 160238Z 06004KT 22/13 A2995 RMK A01 T02240127  RH  054%=      5-min Rain = 0
KBY1 160239Z 06004KT 22/13 A2995 RMK A01 T02240127  RH  054%=      5-min Rain = 0
KBY1 160240Z 06004KT 22/13 A2995 RMK A01 T02240127  RH  054%=      5-min Rain = 0
KBY1 160241Z 07004KT 22/13 A2995 RMK A01 T02240127  RH  054%=      5-min Rain = 0
KBY1 160242Z 07005KT 22/13 A2995 RMK A01 T02240127  RH  054%=      5-min Rain = 0
KBY1 160243Z 07005KT 22/13 A2995 RMK A01 T02240127  RH  054%=      5-min Rain = 0
KBY1 160244Z 07004KT 22/13 A2995 RMK A01 T02240127  RH  054%=      5-min Rain = 0
KBY1 160245Z 07003KT 22/13 A2996 RMK A01 T02240127  RH  054%=      5-min Rain = 0
KBY1 160246Z 06003KT 22/13 A2996 RMK A01 T02240127  RH  054%=      5-min Rain = 0
KBY1 160247Z 04003KT 22/13 A2996 RMK A01 T02220127  RH  055%=      5-min Rain = 0
KBY1 160248Z 04003KT 22/13 A2996 RMK A01 T02210127  RH  055%=      5-min Rain = 0
KBY1 160249Z 04004KT 22/13 A2996 RMK A01 T02200126  RH  055%=      5-min Rain = 0
KBY1 160250Z 04004KT 22/13 A2996 RMK A01 T02200126  RH  055%=      5-min Rain = 0
KBY1 160251Z 04005KT 22/13 A2996 RMK A01 T02210126  RH  055%=      5-min Rain = 0
KBY1 160252Z 04004KT 22/13 A2996 RMK A01 T02220126  RH  054%=      5-min Rain = 0
KBY1 160253Z 04005KT 22/13 A2996 RMK A01 T02220126  RH  054%=      5-min Rain = 0
KBY1 160254Z 04005KT 22/13 A2996 RMK A01 T02230126  RH  054%=      5-min Rain = 0
KBY1 160255Z 04005KT 22/13 A2996 RMK A01 T02240126  RH  054%=      5-min Rain = 0
KBY1 160256Z 04005KT 22/13 A2996 RMK A01 T02240126  RH  054%=      5-min Rain = 0
KBY1 160257Z 04005KT 22/13 A2996 RMK A01 T02240126  RH  054%=      5-min Rain = 0
KBY1 160258Z 03004KT 22/13 A2996 RMK A01 T02240126  RH  054%=      5-min Rain = 0
KBY1 160259Z 03004KT 22/13 A2997 RMK A01 T02230126  RH  054%=      5-min Rain = 0
KBY1 160300Z 03003KT 22/13 A2997 RMK A01 T02230126  RH  054%=      5-min Rain = 0
KBY1 160301Z 03003KT 22/13 A2997 RMK A01 T02230126  RH  054%=      5-min Rain = 0
KBY1 160302Z 03003KT 22/13 A2997 RMK A01 T02230126  RH  054%=      5-min Rain = 0
KBY1 160303Z 04003KT 22/13 A2997 RMK A01 T02220126  RH  054%=      5-min Rain = 0
KBY1 160304Z 03003KT 22/13 A2997 RMK A01 T02210125  RH  054%=      5-min Rain = 0
KBY1 160305Z 03003KT 22/13 A2997 RMK A01 T02210125  RH  055%=      5-min Rain = 0
KBY1 160306Z 03002KT 22/13 A2997 RMK A01 T02190125  RH  055%=      5-min Rain = 0
KBY1 160307Z 02003KT 22/13 A2997 RMK A01 T02180125  RH  055%=      5-min Rain = 0
KBY1 160308Z 02002KT 22/13 A2997 RMK A01 T02180125  RH  056%=      5-min Rain = 0
KBY1 160309Z 01003KT 22/13 A2997 RMK A01 T02160125  RH  056%=      5-min Rain = 0
KBY1 160310Z 02003KT 22/13 A2997 RMK A01 T02150125  RH  056%=      5-min Rain = 0
KBY1 160311Z 01003KT 21/13 A2997 RMK A01 T02140125  RH  057%=      5-min Rain = 0
KBY1 160312Z 01003KT 21/12 A2997 RMK A01 T02130124  RH  057%=      5-min Rain = 0
KBY1 160313Z 01004KT 21/12 A2997 RMK A01 T02120124  RH  057%=      5-min Rain = 0
KBY1 160314Z 01004KT 21/13 A2997 RMK A01 T02110125  RH  058%=      5-min Rain = 0
KBY1 160315Z 02004KT 21/13 A2997 RMK A01 T02110125  RH  058%=      5-min Rain = 0
KBY1 160316Z 02004KT 21/13 A2997 RMK A01 T02100125  RH  058%=      5-min Rain = 0
KBY1 160317Z 02005KT 21/13 A2997 RMK A01 T02100125  RH  058%=      5-min Rain = 0
KBY1 160318Z 03006KT 21/13 A2997 RMK A01 T02090125  RH  058%=      5-min Rain = 0
KBY1 160319Z 03007KT 21/13 A2997 RMK A01 T02100126  RH  058%=      5-min Rain = 0
KBY1 160320Z 03007KT 21/13 A2997 RMK A01 T02110126  RH  058%=      5-min Rain = 0
KBY1 160321Z 03008KT 21/13 A2997 RMK A01 T02130126  RH  058%=      5-min Rain = 0
KBY1 160322Z 03008KT 21/13 A2997 RMK A01 T02140126  RH  057%=      5-min Rain = 0
KBY1 160323Z 03008KT 22/13 A2997 RMK A01 T02150125  RH  056%=      5-min Rain = 0
KBY1 160324Z 03007KT 22/13 A2998 RMK A01 T02160125  RH  056%=      5-min Rain = 0
KBY1 160325Z 03007KT 22/13 A2998 RMK A01 T02160125  RH  056%=      5-min Rain = 0
KBY1 160326Z 03006KT 22/13 A2998 RMK A01 T02160125  RH  056%=      5-min Rain = 0
KBY1 160327Z 02005KT 22/13 A2998 RMK A01 T02160125  RH  056%=      5-min Rain = 0
KBY1 160328Z 02004KT 22/13 A2998 RMK A01 T02160126  RH  056%=      5-min Rain = 0
KBY1 160329Z 04002KT 22/13 A2999 RMK A01 T02160125  RH  056%=      5-min Rain = 0
KBY1 160330Z 04003KT 22/13 A2999 RMK A01 T02150125  RH  057%=      5-min Rain = 0
KBY1 160331Z 06001KT 21/12 A2999 RMK A01 T02140123  RH  056%=      5-min Rain = 0
KBY1 160332Z 13002KT 21/12 A2999 RMK A01 T02110122  RH  057%=      5-min Rain = 0
KBY1 160333Z 11003KT 21/12 A2999 RMK A01 T02080123  RH  058%=      5-min Rain = 0
KBY1 160334Z 10003KT 21/12 A2999 RMK A01 T02060124  RH  059%=      5-min Rain = 0
KBY1 160335Z 08005KT 21/12 A2999 RMK A01 T02060124  RH  060%=      5-min Rain = 0
KBY1 160336Z 06005KT 21/12 A2999 RMK A01 T02060124  RH  060%=      5-min Rain = 0
KBY1 160337Z 04004KT 21/12 A2999 RMK A01 T02060124  RH  059%=      5-min Rain = 0
KBY1 160338Z 04003KT 21/13 A2999 RMK A01 T02060125  RH  059%=      5-min Rain = 0
KBY1 160339Z 04003KT 21/12 A2999 RMK A01 T02060124  RH  059%=      5-min Rain = 0
KBY1 160340Z 03003KT 21/13 A2999 RMK A01 T02060125  RH  060%=      5-min Rain = 0
KBY1 160341Z 04004KT 21/13 A2999 RMK A01 T02060125  RH  060%=      5-min Rain = 0
KBY1 160342Z 03003KT 21/13 A2999 RMK A01 T02050125  RH  060%=      5-min Rain = 0
KBY1 160343Z 02003KT 21/12 A2999 RMK A01 T02050124  RH  060%=      5-min Rain = 0
KBY1 160344Z 02003KT 21/13 A2999 RMK A01 T02050125  RH  060%=      5-min Rain = 0
KBY1 160345Z 02003KT 21/13 A2999 RMK A01 T02050125  RH  060%=      5-min Rain = 0
KBY1 160346Z 02004KT 21/13 A2999 RMK A01 T02050125  RH  060%=      5-min Rain = 0
KBY1 160347Z 02004KT 21/12 A30 RMK A01 T02050124  RH  060%=      5-min Rain = 0
KBY1 160348Z 01004KT 20/12 A30 RMK A01 T02040124  RH  060%=      5-min Rain = 0
KBY1 160349Z 00006KT 20/13 A30 RMK A01 T02030125  RH  061%=      5-min Rain = 0
KBY1 160350Z 00007KT 20/13 A3001 RMK A01 T02040125  RH  061%=      5-min Rain = 0
KBY1 160351Z 01008G14KT 20/13 A3001 RMK A01 T02030125  RH  061%=      5-min Rain = 0
KBY1 160352Z 01010KT 20/12 A3001 RMK A01 T02020124  RH  061%=      5-min Rain = 0
KBY1 160353Z 01009KT 20/12 A3001 RMK A01 T02030123  RH  060%=      5-min Rain = 0
KBY1 160354Z 03009KT 20/12 A3001 RMK A01 T02040123  RH  060%=      5-min Rain = 0
KBY1 160355Z 02011G16KT 21/12 A3001 RMK A01 T02050121  RH  059%=      5-min Rain = 0
KBY1 160356Z 02012KT 21/12 A3001 RMK A01 T02050119  RH  057%=      5-min Rain = 0
KBY1 160357Z 02014KT 21/12 A3001 RMK A01 T02060115  RH  056%=      5-min Rain = 0
KBY1 160358Z 02014G20KT 21/11 A3001 RMK A01 T02060114  RH  055%=      5-min Rain = 0
KBY1 160359Z 01010KT 21/11 A3001 RMK A01 T02050113  RH  055%=      5-min Rain = 0
KBY1 160400Z 01012KT 20/11 A3002 RMK A01 T02030111  RH  056%=      5-min Rain = 0
KBY1 160401Z 01012KT 20/11 A3002 RMK A01 T02010110  RH  056%=      5-min Rain = 0
KBY1 160402Z 01011KT 20/11 A3002 RMK A01 T02000110  RH  056%=      5-min Rain = 0
KBY1 160403Z 01011KT 20/11 A3002 RMK A01 T01990109  RH  056%=      5-min Rain = 0
KBY1 160404Z 01009KT 20/11 A3002 RMK A01 T01970108  RH  056%=      5-min Rain = 0
KBY1 160405Z 01012KT 20/11 A3002 RMK A01 T01960108  RH  057%=      5-min Rain = 0
KBY1 160406Z 02010KT 20/11 A3002 RMK A01 T01950108  RH  057%=      5-min Rain = 0
KBY1 160407Z 02012KT 19/11 A3002 RMK A01 T01940108  RH  057%=      5-min Rain = 0
KBY1 160408Z 02012KT 19/11 A3002 RMK A01 T01940108  RH  058%=      5-min Rain = 0
KBY1 160409Z 03011KT 19/11 A3002 RMK A01 T01930108  RH  058%=      5-min Rain = 0
KBY1 160410Z 03009KT 19/11 A3002 RMK A01 T01930108  RH  058%=      5-min Rain = 0
KBY1 160411Z 02009KT 19/11 A3002 RMK A01 T01920108  RH  058%=      5-min Rain = 0
KBY1 160412Z 03009KT 19/11 A3002 RMK A01 T01920108  RH  058%=      5-min Rain = 0
KBY1 160413Z 03010KT 19/11 A3002 RMK A01 T01920108  RH  058%=      5-min Rain = 0
KBY1 160414Z 04009KT 19/11 A3003 RMK A01 T01910109  RH  059%=      5-min Rain = 0
KBY1 160415Z 03010KT 19/11 A3003 RMK A01 T01910109  RH  059%=      5-min Rain = 0
KBY1 160416Z 04009KT 19/11 A3003 RMK A01 T01920110  RH  059%=      5-min Rain = 0
KBY1 160417Z 04009KT 19/11 A3003 RMK A01 T01910110  RH  059%=      5-min Rain = 0
KBY1 160418Z 05007KT 19/11 A3003 RMK A01 T01910110  RH  059%=      5-min Rain = 0
KBY1 160419Z 05005KT 19/11 A3003 RMK A01 T01920110  RH  059%=      5-min Rain = 0
KBY1 160420Z 10005KT 19/11 A3003 RMK A01 T01910110  RH  059%=      5-min Rain = 0
KBY1 160421Z 08005KT 19/11 A3004 RMK A01 T01910111  RH  060%=      5-min Rain = 0
KBY1 160422Z 12004KT 19/11 A3004 RMK A01 T01910112  RH  060%=      5-min Rain = 0
KBY1 160423Z 09005KT 19/11 A3004 RMK A01 T01900112  RH  061%=      5-min Rain = 0
KBY1 160424Z 13005KT 19/11 A3004 RMK A01 T01900113  RH  061%=      5-min Rain = 0
KBY1 160425Z 14004KT 19/11 A3004 RMK A01 T01900113  RH  061%=      5-min Rain = 0
KBY1 160426Z 11004KT 19/11 A3004 RMK A01 T01900112  RH  061%=      5-min Rain = 0
KBY1 160427Z 08004KT 19/11 A3004 RMK A01 T01890113  RH  061%=      5-min Rain = 0
KBY1 160428Z 07004KT 19/11 A3004 RMK A01 T01890113  RH  061%=      5-min Rain = 0
KBY1 160429Z 10004KT 19/11 A3004 RMK A01 T01900113  RH  061%=      5-min Rain = 0
KBY1 160430Z 09003KT 19/11 A3004 RMK A01 T01900114  RH  061%=      5-min Rain = 0
KBY1 160431Z 09004KT 19/11 A3004 RMK A01 T01900114  RH  061%=      5-min Rain = 0
KBY1 160432Z 11005KT 19/11 A3004 RMK A01 T01890114  RH  062%=      5-min Rain = 0
KBY1 160433Z 13005KT 19/11 A3005 RMK A01 T01890114  RH  061%=      5-min Rain = 0
KBY1 160434Z 12007KT 19/11 A3005 RMK A01 T01900113  RH  061%=      5-min Rain = 0
KBY1 160435Z 12005KT 19/11 A3005 RMK A01 T01910112  RH  060%=      5-min Rain = 0
KBY1 160436Z 10005KT 19/11 A3005 RMK A01 T01920113  RH  060%=      5-min Rain = 0
KBY1 160437Z 10006KT 19/11 A3005 RMK A01 T01930113  RH  060%=      5-min Rain = 0
KBY1 160438Z 09005KT 19/11 A3005 RMK A01 T01920113  RH  060%=      5-min Rain = 0
KBY1 160439Z 09007KT 19/11 A3005 RMK A01 T01910112  RH  060%=      5-min Rain = 0
KBY1 160440Z 09005KT 19/11 A3005 RMK A01 T01900112  RH  060%=      5-min Rain = 0
KBY1 160441Z 10004KT 19/11 A3005 RMK A01 T01900112  RH  060%=      5-min Rain = 0
KBY1 160442Z 10004KT 19/11 A3005 RMK A01 T01890112  RH  061%=      5-min Rain = 0
KBY1 160443Z 10004KT 19/11 A3005 RMK A01 T01880111  RH  061%=      5-min Rain = 0
KBY1 160444Z 09005KT 19/11 A3005 RMK A01 T01880110  RH  061%=      5-min Rain = 0
KBY1 160445Z 09007KT 19/11 A3005 RMK A01 T01870109  RH  060%=      5-min Rain = 0
KBY1 160446Z 09005KT 19/11 A3005 RMK A01 T01860107  RH  060%=      5-min Rain = 0
KBY1 160447Z 10006KT 19/11 A3006 RMK A01 T01870107  RH  060%=      5-min Rain = 0
KBY1 160448Z 08006KT 19/11 A3006 RMK A01 T01870106  RH  059%=      5-min Rain = 0
KBY1 160449Z 07004KT 19/11 A3006 RMK A01 T01860106  RH  060%=      5-min Rain = 0
KBY1 160450Z 10006KT 19/11 A3006 RMK A01 T01850106  RH  060%=      5-min Rain = 0
KBY1 160451Z 09007KT 19/11 A3006 RMK A01 T01850105  RH  060%=      5-min Rain = 0
KBY1 160452Z 09007KT 18/10 A3006 RMK A01 T01840104  RH  060%=      5-min Rain = 0
KBY1 160453Z 09007KT 18/10 A3006 RMK A01 T01840104  RH  060%=      5-min Rain = 0
KBY1 160454Z 07007KT 18/10 A3006 RMK A01 T01840104  RH  060%=      5-min Rain = 0
KBY1 160455Z 08007KT 18/10 A3006 RMK A01 T01840104  RH  059%=      5-min Rain = 0
KBY1 160456Z 07007KT 18/10 A3006 RMK A01 T01840104  RH  060%=      5-min Rain = 0
KBY1 160457Z 09006KT 18/10 A3006 RMK A01 T01830104  RH  060%=      5-min Rain = 0
KBY1 160458Z 08005KT 18/10 A3006 RMK A01 T01830104  RH  060%=      5-min Rain = 0
KBY1 160459Z 08006KT 18/10 A3006 RMK A01 T01820103  RH  060%=      5-min Rain = 0

Page generated in 0.0474 seconds.